Observation data for Canadian on 05/28/2019      Previous  Date  Next       Current Mesonet Observations  Soil Data  Daily Summary Page  Observations in Plain Language
KCA1 280500Z 15020G26KT 23/20 A2964 RMK A01 T02270199  RH  084%=      5-min Rain = 0
KCA1 280501Z 15022KT 23/20 A2964 RMK A01 T02270199  RH  084%=      5-min Rain = 0
KCA1 280502Z 16017KT 23/20 A2964 RMK A01 T02270199  RH  084%=      5-min Rain = 0
KCA1 280503Z 16017KT 23/20 A2964 RMK A01 T02270199  RH  084%=      5-min Rain = 0
KCA1 280504Z 15021G26KT 23/20 A2964 RMK A01 T02270199  RH  084%=      5-min Rain = 0
KCA1 280505Z 16020KT 23/20 A2964 RMK A01 T02270199  RH  084%=      5-min Rain = 0
KCA1 280506Z 15017KT 23/20 A2964 RMK A01 T02270199  RH  084%=      5-min Rain = 0
KCA1 280507Z 16015KT 23/20 A2964 RMK A01 T02270199  RH  084%=      5-min Rain = 0
KCA1 280508Z 16018KT 23/20 A2964 RMK A01 T02260199  RH  084%=      5-min Rain = 0
KCA1 280509Z 15017G23KT 23/20 A2964 RMK A01 T02250198  RH  085%=      5-min Rain = 0
KCA1 280510Z 16020G26KT 23/20 A2964 RMK A01 T02250198  RH  085%=      5-min Rain = 0
KCA1 280511Z 15022KT 23/20 A2964 RMK A01 T02260198  RH  085%=      5-min Rain = 0
KCA1 280512Z 15020KT 23/20 A2964 RMK A01 T02260198  RH  084%=      5-min Rain = 0
KCA1 280513Z 16019G25KT 23/20 A2964 RMK A01 T02260198  RH  084%=      5-min Rain = 0
KCA1 280514Z 16019KT 23/20 A2964 RMK A01 T02260198  RH  084%=      5-min Rain = 0
KCA1 280515Z 15017G22KT 23/20 A2964 RMK A01 T02260198  RH  084%=      5-min Rain = 0
KCA1 280516Z 16021G28KT 23/20 A2964 RMK A01 T02250198  RH  085%=      5-min Rain = 0
KCA1 280517Z 15021G26KT 23/20 A2964 RMK A01 T02250198  RH  085%=      5-min Rain = 0
KCA1 280518Z 15019G27KT 23/20 A2964 RMK A01 T02250198  RH  084%=      5-min Rain = 0
KCA1 280519Z 16018G24KT 23/20 A2964 RMK A01 T02250198  RH  084%=      5-min Rain = 0
KCA1 280520Z 16019KT 23/20 A2964 RMK A01 T02250198  RH  084%=      5-min Rain = 0
KCA1 280521Z 16020KT 23/20 A2964 RMK A01 T02250198  RH  084%=      5-min Rain = 0
KCA1 280522Z 15020KT 23/20 A2964 RMK A01 T02250197  RH  084%=      5-min Rain = 0
KCA1 280523Z 15020KT 23/20 A2964 RMK A01 T02250197  RH  084%=      5-min Rain = 0
KCA1 280524Z 16021KT 23/20 A2964 RMK A01 T02250197  RH  084%=      5-min Rain = 0
KCA1 280525Z 16020G27KT 22/20 A2964 RMK A01 T02240196  RH  084%=      5-min Rain = 0
KCA1 280526Z 16022KT 22/20 A2964 RMK A01 T02240196  RH  084%=      5-min Rain = 0
KCA1 280527Z 15018G23KT 23/20 A2964 RMK A01 T02250197  RH  084%=      5-min Rain = 0
KCA1 280528Z 16019KT 22/20 A2964 RMK A01 T02240196  RH  084%=      5-min Rain = 0
KCA1 280529Z 16017KT 22/20 A2964 RMK A01 T02240196  RH  084%=      5-min Rain = 0
KCA1 280530Z 16019G25KT 22/20 A2964 RMK A01 T02240196  RH  084%=      5-min Rain = 0
KCA1 280531Z 15019G26KT 22/20 A2964 RMK A01 T02240196  RH  084%=      5-min Rain = 0
KCA1 280532Z 16023KT 22/20 A2964 RMK A01 T02240196  RH  084%=      5-min Rain = 0
KCA1 280533Z 16018KT 22/20 A2964 RMK A01 T02240196  RH  084%=      5-min Rain = 0
KCA1 280534Z 15017KT 22/20 A2964 RMK A01 T02240196  RH  084%=      5-min Rain = 0
KCA1 280535Z 16021G26KT 22/20 A2964 RMK A01 T02240196  RH  084%=      5-min Rain = 0
KCA1 280536Z 16021KT 22/20 A2964 RMK A01 T02230195  RH  084%=      5-min Rain = 0
KCA1 280537Z 16022KT 22/20 A2964 RMK A01 T02240195  RH  084%=      5-min Rain = 0
KCA1 280538Z 16021KT 22/20 A2964 RMK A01 T02240195  RH  084%=      5-min Rain = 0
KCA1 280539Z 16022G27KT 22/20 A2964 RMK A01 T02240195  RH  084%=      5-min Rain = 0
KCA1 280540Z 16018G23KT 22/20 A2964 RMK A01 T02240195  RH  084%=      5-min Rain = 0
KCA1 280541Z 16019KT 22/20 A2964 RMK A01 T02230195  RH  084%=      5-min Rain = 0
KCA1 280542Z 16022G29KT 22/20 A2963 RMK A01 T02230195  RH  084%=      5-min Rain = 0
KCA1 280543Z 16022G27KT 22/20 A2963 RMK A01 T02230195  RH  084%=      5-min Rain = 0
KCA1 280544Z 16019KT 22/20 A2964 RMK A01 T02230195  RH  084%=      5-min Rain = 0
KCA1 280545Z 16019G25KT 22/20 A2963 RMK A01 T02230195  RH  084%=      5-min Rain = 0
KCA1 280546Z 16018G24KT 22/20 A2963 RMK A01 T02230195  RH  084%=      5-min Rain = 0
KCA1 280547Z 16019KT 22/20 A2964 RMK A01 T02220195  RH  084%=      5-min Rain = 0
KCA1 280548Z 16018KT 22/20 A2964 RMK A01 T02220195  RH  084%=      5-min Rain = 0
KCA1 280549Z 16018KT 22/20 A2964 RMK A01 T02220195  RH  084%=      5-min Rain = 0
KCA1 280550Z 16019KT 22/20 A2964 RMK A01 T02220195  RH  085%=      5-min Rain = 0
KCA1 280551Z 16022KT 22/20 A2963 RMK A01 T02220195  RH  085%=      5-min Rain = 0
KCA1 280552Z 16020KT 22/19 A2963 RMK A01 T02220194  RH  084%=      5-min Rain = 0
KCA1 280553Z 16019KT 22/19 A2963 RMK A01 T02220194  RH  084%=      5-min Rain = 0
KCA1 280554Z 16016KT 22/19 A2963 RMK A01 T02210194  RH  085%=      5-min Rain = 0
KCA1 280555Z 16018G23KT 22/19 A2963 RMK A01 T02210194  RH  085%=      5-min Rain = 0
KCA1 280556Z 16018G24KT 22/19 A2963 RMK A01 T02210194  RH  085%=      5-min Rain = 0
KCA1 280557Z 16018G23KT 22/19 A2963 RMK A01 T02210194  RH  085%=      5-min Rain = 0
KCA1 280558Z 16019KT 22/19 A2963 RMK A01 T02210194  RH  085%=      5-min Rain = 0
KCA1 280559Z 16018KT 22/19 A2963 RMK A01 T02210194  RH  085%=      5-min Rain = 0
KCA1 280600Z 16018KT 22/19 A2963 RMK A01 T02210194  RH  085%=      5-min Rain = 0
KCA1 280601Z 16016KT 22/19 A2963 RMK A01 T02210194  RH  085%=      5-min Rain = 0
KCA1 280602Z 16019G25KT 22/19 A2963 RMK A01 T02200194  RH  085%=      5-min Rain = 0
KCA1 280603Z 16017KT 22/19 A2963 RMK A01 T02200194  RH  085%=      5-min Rain = 0
KCA1 280604Z 16020KT 22/19 A2963 RMK A01 T02200194  RH  085%=      5-min Rain = 0
KCA1 280605Z 16020KT 22/19 A2963 RMK A01 T02200193  RH  085%=      5-min Rain = 0
KCA1 280606Z 16022KT 22/19 A2963 RMK A01 T02200193  RH  085%=      5-min Rain = 0
KCA1 280607Z 16020KT 22/19 A2963 RMK A01 T02210193  RH  084%=      5-min Rain = 0
KCA1 280608Z 16019KT 22/19 A2963 RMK A01 T02210193  RH  084%=      5-min Rain = 0
KCA1 280609Z 16017KT 22/19 A2963 RMK A01 T02210193  RH  085%=      5-min Rain = 0
KCA1 280610Z 16020G26KT 22/19 A2963 RMK A01 T02200193  RH  085%=      5-min Rain = 0
KCA1 280611Z 16018KT 22/19 A2963 RMK A01 T02200193  RH  085%=      5-min Rain = 0
KCA1 280612Z 16019KT 22/19 A2963 RMK A01 T02200193  RH  085%=      5-min Rain = 0
KCA1 280613Z 16018KT 22/19 A2963 RMK A01 T02190193  RH  085%=      5-min Rain = 0
KCA1 280614Z 16019KT 22/19 A2963 RMK A01 T02190193  RH  085%=      5-min Rain = 0
KCA1 280615Z 16017G23KT 22/19 A2963 RMK A01 T02190193  RH  085%=      5-min Rain = 0
KCA1 280616Z 16021KT 22/19 A2963 RMK A01 T02190193  RH  085%=      5-min Rain = 0
KCA1 280617Z 16019G25KT 22/19 A2963 RMK A01 T02200193  RH  085%=      5-min Rain = 0
KCA1 280618Z 16021G26KT 22/19 A2963 RMK A01 T02200193  RH  085%=      5-min Rain = 0
KCA1 280619Z 16015G20KT 22/19 A2963 RMK A01 T02190193  RH  085%=      5-min Rain = 0
KCA1 280620Z 16017G22KT 22/19 A2963 RMK A01 T02190193  RH  085%=      5-min Rain = 0
KCA1 280621Z 16020KT 22/19 A2963 RMK A01 T02190193  RH  085%=      5-min Rain = 0
KCA1 280622Z 16020KT 22/19 A2963 RMK A01 T02180193  RH  085%=      5-min Rain = 0
KCA1 280623Z 16018G23KT 22/19 A2963 RMK A01 T02190193  RH  085%=      5-min Rain = 0
KCA1 280624Z 16018G23KT 22/19 A2963 RMK A01 T02190193  RH  085%=      5-min Rain = 0
KCA1 280625Z 16019KT 22/19 A2963 RMK A01 T02190193  RH  085%=      5-min Rain = 0
KCA1 280626Z 17020G25KT 22/19 A2963 RMK A01 T02190193  RH  085%=      5-min Rain = 0
KCA1 280627Z 16019KT 22/19 A2963 RMK A01 T02190193  RH  085%=      5-min Rain = 0
KCA1 280628Z 16020KT 22/19 A2963 RMK A01 T02190192  RH  085%=      5-min Rain = 0
KCA1 280629Z 16017KT 22/19 A2963 RMK A01 T02190192  RH  085%=      5-min Rain = 0
KCA1 280630Z 16018KT 22/19 A2963 RMK A01 T02190193  RH  085%=      5-min Rain = 0
KCA1 280631Z 16020G25KT 22/19 A2963 RMK A01 T02180192  RH  085%=      5-min Rain = 0
KCA1 280632Z 17018KT 22/19 A2963 RMK A01 T02180192  RH  085%=      5-min Rain = 0
KCA1 280633Z 16017KT 22/19 A2963 RMK A01 T02180192  RH  085%=      5-min Rain = 0
KCA1 280634Z 16017G22KT 22/19 A2963 RMK A01 T02180192  RH  085%=      5-min Rain = 0
KCA1 280635Z 16018G25KT 22/19 A2963 RMK A01 T02180193  RH  086%=      5-min Rain = 0
KCA1 280636Z 16019G25KT 22/19 A2963 RMK A01 T02170192  RH  086%=      5-min Rain = 0
KCA1 280637Z 17017KT 22/19 A2963 RMK A01 T02170192  RH  085%=      5-min Rain = 0
KCA1 280638Z 17018KT 22/19 A2963 RMK A01 T02170192  RH  086%=      5-min Rain = 0
KCA1 280639Z 17015G23KT 22/19 A2963 RMK A01 T02170192  RH  086%=      5-min Rain = 0
KCA1 280640Z 16019G25KT 22/19 A2963 RMK A01 T02170192  RH  086%=      5-min Rain = 0
KCA1 280641Z 17018KT 22/19 A2963 RMK A01 T02170192  RH  086%=      5-min Rain = 0
KCA1 280642Z 17018KT 22/19 A2963 RMK A01 T02170192  RH  086%=      5-min Rain = 0
KCA1 280643Z 16017KT 22/19 A2963 RMK A01 T02170192  RH  086%=      5-min Rain = 0
KCA1 280644Z 17018G23KT 22/19 A2963 RMK A01 T02170192  RH  086%=      5-min Rain = 0
KCA1 280645Z 17018KT 22/19 A2964 RMK A01 T02170192  RH  086%=      5-min Rain = 0
KCA1 280646Z 17019G25KT 22/19 A2963 RMK A01 T02170192  RH  086%=      5-min Rain = 0
KCA1 280647Z 17017KT 22/19 A2963 RMK A01 T02170192  RH  086%=      5-min Rain = 0
KCA1 280648Z 17018G23KT 22/19 A2964 RMK A01 T02170192  RH  086%=      5-min Rain = 0
KCA1 280649Z 17018KT 22/19 A2963 RMK A01 T02170192  RH  086%=      5-min Rain = 0
KCA1 280650Z 17016G21KT 22/19 A2963 RMK A01 T02170193  RH  086%=      5-min Rain = 0
KCA1 280651Z 17018KT 22/19 A2963 RMK A01 T02170193  RH  086%=      5-min Rain = 0
KCA1 280652Z 17019KT 22/19 A2963 RMK A01 T02160192  RH  086%=      5-min Rain = 0
KCA1 280653Z 17016KT 22/19 A2963 RMK A01 T02160192  RH  086%=      5-min Rain = 0
KCA1 280654Z 17015G21KT 22/19 A2963 RMK A01 T02160193  RH  086%=      5-min Rain = 0
KCA1 280655Z 17017KT 22/19 A2963 RMK A01 T02150192  RH  087%=      5-min Rain = 0
KCA1 280656Z 17016G22KT 22/19 A2963 RMK A01 T02150192  RH  087%=      5-min Rain = 0
KCA1 280657Z 17016KT 22/19 A2963 RMK A01 T02150192  RH  087%=      5-min Rain = 0
KCA1 280658Z 17017G22KT 22/19 A2963 RMK A01 T02150193  RH  087%=      5-min Rain = 0
KCA1 280659Z 17021KT 22/19 A2963 RMK A01 T02150192  RH  087%=      5-min Rain = 0
KCA1 280700Z 17019KT 22/19 A2963 RMK A01 T02150192  RH  087%=      5-min Rain = 0
KCA1 280701Z 17018G23KT 22/19 A2963 RMK A01 T02160192  RH  087%=      5-min Rain = 0
KCA1 280702Z 17016KT 22/19 A2963 RMK A01 T02160192  RH  087%=      5-min Rain = 0
KCA1 280703Z 17018G24KT 22/19 A2963 RMK A01 T02150192  RH  087%=      5-min Rain = 0
KCA1 280704Z 17018G23KT 22/19 A2963 RMK A01 T02150192  RH  087%=      5-min Rain = 0
KCA1 280705Z 16018KT 22/19 A2963 RMK A01 T02150193  RH  087%=      5-min Rain = 0
KCA1 280706Z 17019G25KT 22/19 A2962 RMK A01 T02150192  RH  087%=      5-min Rain = 0
KCA1 280707Z 16019KT 21/19 A2962 RMK A01 T02140192  RH  087%=      5-min Rain = 0
KCA1 280708Z 17019KT 21/19 A2962 RMK A01 T02140192  RH  087%=      5-min Rain = 0
KCA1 280709Z 16017G23KT 22/19 A2962 RMK A01 T02150193  RH  087%=      5-min Rain = 0
KCA1 280710Z 17016KT 21/19 A2962 RMK A01 T02140193  RH  088%=      5-min Rain = 0
KCA1 280711Z 17018KT 21/19 A2962 RMK A01 T02140193  RH  088%=      5-min Rain = 0
KCA1 280712Z 17020G25KT 21/19 A2962 RMK A01 T02130192  RH  088%=      5-min Rain = 0
KCA1 280713Z 17018KT 21/19 A2963 RMK A01 T02130192  RH  088%=      5-min Rain = 0
KCA1 280714Z 17018G24KT 21/19 A2963 RMK A01 T02130192  RH  088%=      5-min Rain = 0
KCA1 280715Z 17018G23KT 21/19 A2963 RMK A01 T02130192  RH  088%=      5-min Rain = 0
KCA1 280716Z 17017G22KT 21/19 A2963 RMK A01 T02140193  RH  088%=      5-min Rain = 0
KCA1 280717Z 18019KT 21/19 A2963 RMK A01 T02140193  RH  088%=      5-min Rain = 0
KCA1 280718Z 17015KT 21/19 A2963 RMK A01 T02140193  RH  088%=      5-min Rain = 0
KCA1 280719Z 18018G23KT 21/19 A2963 RMK A01 T02130193  RH  088%=      5-min Rain = 0
KCA1 280720Z 17016KT 21/19 A2963 RMK A01 T02130193  RH  088%=      5-min Rain = 0
KCA1 280721Z 17015KT 21/19 A2963 RMK A01 T02130193  RH  088%=      5-min Rain = 0
KCA1 280722Z 17018KT 21/19 A2963 RMK A01 T02130193  RH  088%=      5-min Rain = 0
KCA1 280723Z 17021KT 21/19 A2963 RMK A01 T02130193  RH  088%=      5-min Rain = 0
KCA1 280724Z 17018KT 21/19 A2963 RMK A01 T02130193  RH  088%=      5-min Rain = 0
KCA1 280725Z 17014KT 21/19 A2963 RMK A01 T02130193  RH  088%=      5-min Rain = 0
KCA1 280726Z 17015G21KT 21/19 A2963 RMK A01 T02130193  RH  088%=      5-min Rain = 0
KCA1 280727Z 18016KT 21/19 A2963 RMK A01 T02130193  RH  088%=      5-min Rain = 0
KCA1 280728Z 17015KT 21/19 A2963 RMK A01 T02120193  RH  089%=      5-min Rain = 0
KCA1 280729Z 17014KT 21/19 A2963 RMK A01 T02120193  RH  089%=      5-min Rain = 0
KCA1 280730Z 17016G21KT 21/19 A2963 RMK A01 T02120193  RH  089%=      5-min Rain = 0
KCA1 280731Z 18018KT 21/19 A2963 RMK A01 T02120193  RH  089%=      5-min Rain = 0
KCA1 280732Z 18017KT 21/19 A2964 RMK A01 T02120193  RH  089%=      5-min Rain = 0
KCA1 280733Z 18015G21KT 21/19 A2964 RMK A01 T02120193  RH  089%=      5-min Rain = 0
KCA1 280734Z 17014G20KT 21/19 A2964 RMK A01 T02120193  RH  089%=      5-min Rain = 0
KCA1 280735Z 17016G21KT 21/19 A2964 RMK A01 T02120193  RH  089%=      5-min Rain = 0
KCA1 280736Z 18014KT 21/19 A2964 RMK A01 T02120193  RH  089%=      5-min Rain = 0
KCA1 280737Z 17011G16KT 21/19 A2964 RMK A01 T02120193  RH  089%=      5-min Rain = 0
KCA1 280738Z 18015G20KT 21/19 A2964 RMK A01 T02110193  RH  089%=      5-min Rain = 0
KCA1 280739Z 18017KT 21/19 A2964 RMK A01 T02110193  RH  089%=      5-min Rain = 0
KCA1 280740Z 18016KT 21/19 A2964 RMK A01 T02110193  RH  089%=      5-min Rain = 0
KCA1 280741Z 19014KT 21/19 A2964 RMK A01 T02120193  RH  089%=      5-min Rain = 0
KCA1 280742Z 19011KT 21/19 A2964 RMK A01 T02120193  RH  089%=      5-min Rain = 0
KCA1 280743Z 19013G18KT 21/19 A2964 RMK A01 T02120193  RH  089%=      5-min Rain = 0
KCA1 280744Z 18016KT 21/19 A2964 RMK A01 T02110193  RH  089%=      5-min Rain = 0
KCA1 280745Z 19016KT 21/19 A2964 RMK A01 T02110193  RH  089%=      5-min Rain = 0
KCA1 280746Z 18016KT 21/19 A2964 RMK A01 T02120193  RH  089%=      5-min Rain = 0
KCA1 280747Z 18017KT 21/19 A2964 RMK A01 T02120193  RH  089%=      5-min Rain = 0
KCA1 280748Z 18015G20KT 21/19 A2964 RMK A01 T02110193  RH  089%=      5-min Rain = 0
KCA1 280749Z 18016KT 21/19 A2964 RMK A01 T02110193  RH  089%=      5-min Rain = 0
KCA1 280750Z 18018KT 21/19 A2964 RMK A01 T02110193  RH  089%=      5-min Rain = 0
KCA1 280751Z 17019KT 21/19 A2964 RMK A01 T02110193  RH  089%=      5-min Rain = 0
KCA1 280752Z 17019KT 21/19 A2964 RMK A01 T02110193  RH  089%=      5-min Rain = 0
KCA1 280753Z 18017G24KT 21/19 A2964 RMK A01 T02110192  RH  089%=      5-min Rain = 0
KCA1 280754Z 17019KT 21/19 A2964 RMK A01 T02110192  RH  089%=      5-min Rain = 0
KCA1 280755Z 17017KT 21/19 A2964 RMK A01 T02110193  RH  089%=      5-min Rain = 0
KCA1 280756Z 18017G22KT 21/19 A2963 RMK A01 T02110193  RH  089%=      5-min Rain = 0
KCA1 280757Z 18016KT 21/19 A2964 RMK A01 T02110193  RH  089%=      5-min Rain = 0
KCA1 280758Z 18018KT 21/19 A2964 RMK A01 T02100193  RH  090%=      5-min Rain = 0
KCA1 280759Z 18016G22KT 21/19 A2964 RMK A01 T02100192  RH  090%=      5-min Rain = 0
KCA1 280800Z 18014KT 21/19 A2964 RMK A01 T02100192  RH  089%=      5-min Rain = 0
KCA1 280801Z 18015KT 21/19 A2964 RMK A01 T02100193  RH  090%=      5-min Rain = 0
KCA1 280802Z 18014KT 21/19 A2964 RMK A01 T02100193  RH  090%=      5-min Rain = 0
KCA1 280803Z 18017G23KT 21/19 A2964 RMK A01 T02100193  RH  090%=      5-min Rain = 0
KCA1 280804Z 18017KT 21/19 A2964 RMK A01 T02090192  RH  090%=      5-min Rain = 0
KCA1 280805Z 18016KT 21/19 A2964 RMK A01 T02100192  RH  090%=      5-min Rain = 0
KCA1 280806Z 18017G22KT 21/19 A2964 RMK A01 T02100193  RH  090%=      5-min Rain = 0
KCA1 280807Z 18015KT 21/19 A2964 RMK A01 T02100193  RH  090%=      5-min Rain = 0
KCA1 280808Z 18015KT 21/19 A2964 RMK A01 T02100193  RH  090%=      5-min Rain = 0
KCA1 280809Z 18014G19KT 21/19 A2964 RMK A01 T02110193  RH  090%=      5-min Rain = 0
KCA1 280810Z 18015G20KT 21/19 A2964 RMK A01 T02100193  RH  090%=      5-min Rain = 0
KCA1 280811Z 18015KT 21/19 A2964 RMK A01 T02100193  RH  090%=      5-min Rain = 0
KCA1 280812Z 18015G21KT 21/19 A2964 RMK A01 T02100193  RH  090%=      5-min Rain = 0
KCA1 280813Z 18018KT 21/19 A2964 RMK A01 T02100193  RH  090%=      5-min Rain = 0
KCA1 280814Z 18016KT 21/19 A2964 RMK A01 T02100193  RH  090%=      5-min Rain = 0
KCA1 280815Z 18013KT 21/19 A2964 RMK A01 T02100193  RH  090%=      5-min Rain = 0
KCA1 280816Z 18015KT 21/19 A2964 RMK A01 T02100193  RH  090%=      5-min Rain = 0
KCA1 280817Z 18013G18KT 21/19 A2964 RMK A01 T02090193  RH  090%=      5-min Rain = 0
KCA1 280818Z 18016KT 21/19 A2964 RMK A01 T02090193  RH  090%=      5-min Rain = 0
KCA1 280819Z 18016KT 21/19 A2964 RMK A01 T02090193  RH  091%=      5-min Rain = 0
KCA1 280820Z 18017G22KT 21/19 A2964 RMK A01 T02090193  RH  090%=      5-min Rain = 0
KCA1 280821Z 17014KT 21/19 A2964 RMK A01 T02090193  RH  090%=      5-min Rain = 0
KCA1 280822Z 17013KT 21/19 A2964 RMK A01 T02090193  RH  090%=      5-min Rain = 0
KCA1 280823Z 17013KT 21/19 A2964 RMK A01 T02090193  RH  091%=      5-min Rain = 0
KCA1 280824Z 18017KT 21/19 A2964 RMK A01 T02090193  RH  091%=      5-min Rain = 0
KCA1 280825Z 18016KT 21/19 A2964 RMK A01 T02090193  RH  091%=      5-min Rain = 0
KCA1 280826Z 17015KT 21/19 A2964 RMK A01 T02080192  RH  091%=      5-min Rain = 0
KCA1 280827Z 17014KT 21/19 A2964 RMK A01 T02090193  RH  091%=      5-min Rain = 0
KCA1 280828Z 17016G21KT 21/19 A2964 RMK A01 T02090193  RH  091%=      5-min Rain = 0
KCA1 280829Z 17013KT 21/19 A2964 RMK A01 T02090193  RH  091%=      5-min Rain = 0
KCA1 280830Z 18015KT 21/19 A2964 RMK A01 T02090193  RH  091%=      5-min Rain = 0
KCA1 280831Z 17015KT 21/19 A2964 RMK A01 T02080193  RH  091%=      5-min Rain = 0
KCA1 280832Z 17015KT 21/19 A2964 RMK A01 T02080193  RH  091%=      5-min Rain = 0
KCA1 280833Z 18015KT 21/19 A2964 RMK A01 T02080193  RH  091%=      5-min Rain = 0
KCA1 280834Z 17014KT 21/19 A2963 RMK A01 T02080193  RH  091%=      5-min Rain = 0
KCA1 280835Z 18014KT 21/19 A2963 RMK A01 T02080193  RH  091%=      5-min Rain = 0
KCA1 280836Z 17013KT 21/19 A2963 RMK A01 T02080193  RH  091%=      5-min Rain = 0
KCA1 280837Z 17015KT 21/19 A2963 RMK A01 T02080194  RH  091%=      5-min Rain = 0
KCA1 280838Z 17016KT 21/19 A2963 RMK A01 T02080193  RH  091%=      5-min Rain = 0
KCA1 280839Z 17014KT 21/19 A2963 RMK A01 T02080193  RH  091%=      5-min Rain = 0
KCA1 280840Z 17015KT 21/19 A2963 RMK A01 T02070193  RH  092%=      5-min Rain = 0
KCA1 280841Z 17016KT 21/19 A2963 RMK A01 T02070193  RH  092%=      5-min Rain = 0
KCA1 280842Z 17016KT 21/19 A2963 RMK A01 T02070193  RH  092%=      5-min Rain = 0
KCA1 280843Z 17013KT 21/19 A2963 RMK A01 T02070193  RH  092%=      5-min Rain = 0
KCA1 280844Z 17014G19KT 21/19 A2963 RMK A01 T02070193  RH  092%=      5-min Rain = 0
KCA1 280845Z 17014KT 21/19 A2963 RMK A01 T02070193  RH  092%=      5-min Rain = 0
KCA1 280846Z 17015KT 21/19 A2963 RMK A01 T02070193  RH  092%=      5-min Rain = 0
KCA1 280847Z 17017KT 21/19 A2963 RMK A01 T02070193  RH  092%=      5-min Rain = 0
KCA1 280848Z 17016KT 21/19 A2963 RMK A01 T02070193  RH  092%=      5-min Rain = 0
KCA1 280849Z 17014KT 21/19 A2963 RMK A01 T02070194  RH  092%=      5-min Rain = 0
KCA1 280850Z 17016KT 21/19 A2963 RMK A01 T02070193  RH  092%=      5-min Rain = 0
KCA1 280851Z 17014KT 21/19 A2962 RMK A01 T02060193  RH  092%=      5-min Rain = 0
KCA1 280852Z 17016KT 21/19 A2962 RMK A01 T02060193  RH  092%=      5-min Rain = 0
KCA1 280853Z 17015KT 21/19 A2962 RMK A01 T02060193  RH  092%=      5-min Rain = 0
KCA1 280854Z 17014KT 21/19 A2962 RMK A01 T02060193  RH  092%=      5-min Rain = 0
KCA1 280855Z 17014KT 21/19 A2962 RMK A01 T02060193  RH  092%=      5-min Rain = 0
KCA1 280856Z 17012G19KT 21/19 A2962 RMK A01 T02060193  RH  092%=      5-min Rain = 0
KCA1 280857Z 17016KT 21/19 A2962 RMK A01 T02060194  RH  093%=      5-min Rain = 0
KCA1 280858Z 17014KT 21/19 A2962 RMK A01 T02050194  RH  093%=      5-min Rain = 0
KCA1 280859Z 17013KT 21/19 A2962 RMK A01 T02050194  RH  093%=      5-min Rain = 0
KCA1 280900Z 17015KT 21/19 A2962 RMK A01 T02050193  RH  093%=      5-min Rain = 0
KCA1 280901Z 17015KT 21/19 A2962 RMK A01 T02050194  RH  093%=      5-min Rain = 0
KCA1 280902Z 17013KT 21/19 A2962 RMK A01 T02050194  RH  093%=      5-min Rain = 0
KCA1 280903Z 18015KT 21/19 A2962 RMK A01 T02050194  RH  093%=      5-min Rain = 0
KCA1 280904Z 17017KT 21/19 A2962 RMK A01 T02050194  RH  093%=      5-min Rain = 0
KCA1 280905Z 17014KT 21/19 A2962 RMK A01 T02050194  RH  093%=      5-min Rain = 0
KCA1 280906Z 17012KT 21/19 A2962 RMK A01 T02050194  RH  093%=      5-min Rain = 0
KCA1 280907Z 17016KT 21/19 A2962 RMK A01 T02050194  RH  093%=      5-min Rain = 0
KCA1 280908Z 17015KT 21/19 A2962 RMK A01 T02050194  RH  094%=      5-min Rain = 0
KCA1 280909Z 17014KT 21/19 A2962 RMK A01 T02050194  RH  093%=      5-min Rain = 0
KCA1 280910Z 17012KT 20/19 A2962 RMK A01 T02040194  RH  093%=      5-min Rain = 0
KCA1 280911Z 17014KT 20/19 A2962 RMK A01 T02040194  RH  094%=      5-min Rain = 0
KCA1 280912Z 18015KT 20/19 A2962 RMK A01 T02040194  RH  094%=      5-min Rain = 0
KCA1 280913Z 17012KT 20/19 A2962 RMK A01 T02040194  RH  094%=      5-min Rain = 0
KCA1 280914Z 17014KT 20/19 A2962 RMK A01 T02040194  RH  094%=      5-min Rain = 0
KCA1 280915Z 17015KT 20/19 A2962 RMK A01 T02030194  RH  094%=      5-min Rain = 0
KCA1 280916Z 17016KT 20/19 A2962 RMK A01 T02030194  RH  094%=      5-min Rain = 0
KCA1 280917Z 17014KT 20/19 A2962 RMK A01 T02030193  RH  094%=      5-min Rain = 0
KCA1 280918Z 17015KT 20/19 A2962 RMK A01 T02030193  RH  094%=      5-min Rain = 0
KCA1 280919Z 17014KT 20/19 A2962 RMK A01 T02030194  RH  094%=      5-min Rain = 0
KCA1 280920Z 18011KT 20/19 A2962 RMK A01 T02040194  RH  094%=      5-min Rain = 0
KCA1 280921Z 17014KT 20/19 A2962 RMK A01 T02030194  RH  094%=      5-min Rain = 0
KCA1 280922Z 17016KT 20/19 A2962 RMK A01 T02030194  RH  095%=      5-min Rain = 0
KCA1 280923Z 18014KT 20/19 A2961 RMK A01 T02030194  RH  095%=      5-min Rain = 0
KCA1 280924Z 17014KT 20/19 A2962 RMK A01 T02030193  RH  094%=      5-min Rain = 0
KCA1 280925Z 17017KT 20/19 A2961 RMK A01 T02020193  RH  095%=      5-min Rain = 0
KCA1 280926Z 17013KT 20/19 A2961 RMK A01 T02030194  RH  095%=      5-min Rain = 0
KCA1 280927Z 17015KT 20/19 A2961 RMK A01 T02030194  RH  095%=      5-min Rain = 0
KCA1 280928Z 17015KT 20/19 A2961 RMK A01 T02030194  RH  095%=      5-min Rain = 0
KCA1 280929Z 17016KT 20/19 A2961 RMK A01 T02030194  RH  095%=      5-min Rain = 0
KCA1 280930Z 17015KT 20/19 A2961 RMK A01 T02020194  RH  095%=      5-min Rain = 0
KCA1 280931Z 17014KT 20/19 A2961 RMK A01 T02020194  RH  095%=      5-min Rain = 0
KCA1 280932Z 17014KT 20/19 A2961 RMK A01 T02020194  RH  095%=      5-min Rain = 0
KCA1 280933Z 17013KT 20/19 A2961 RMK A01 T02020194  RH  095%=      5-min Rain = 0
KCA1 280934Z 18016KT 20/19 A2961 RMK A01 T02020194  RH  095%=      5-min Rain = 0
KCA1 280935Z 17014KT 20/19 A2961 RMK A01 T02020194  RH  095%=      5-min Rain = 0
KCA1 280936Z 17015KT 20/19 A2961 RMK A01 T02020194  RH  095%=      5-min Rain = 0
KCA1 280937Z 17014KT 20/19 A2961 RMK A01 T02020194  RH  095%=      5-min Rain = 0
KCA1 280938Z 18013KT 20/19 A2961 RMK A01 T02020194  RH  095%=      5-min Rain = 0
KCA1 280939Z 17014KT 20/19 A2961 RMK A01 T02020194  RH  095%=      5-min Rain = 0
KCA1 280940Z 18013KT 20/19 A2961 RMK A01 T02020194  RH  095%=      5-min Rain = 0
KCA1 280941Z 18015KT 20/19 A2961 RMK A01 T02020194  RH  095%=      5-min Rain = 0
KCA1 280942Z 17010KT 20/19 A2961 RMK A01 T02020194  RH  095%=      5-min Rain = 0
KCA1 280943Z 18012KT 20/19 A2961 RMK A01 T02020194  RH  095%=      5-min Rain = 0
KCA1 280944Z 18015KT 20/19 A2961 RMK A01 T02020194  RH  095%=      5-min Rain = 0
KCA1 280945Z 17014KT 20/19 A2961 RMK A01 T02020194  RH  096%=      5-min Rain = 0
KCA1 280946Z 17015KT 20/19 A2961 RMK A01 T02020194  RH  095%=      5-min Rain = 0
KCA1 280947Z 18013G19KT 20/19 A2961 RMK A01 T02020194  RH  095%=      5-min Rain = 0
KCA1 280948Z 17014KT 20/19 A2961 RMK A01 T02020194  RH  095%=      5-min Rain = 0
KCA1 280949Z 18012KT 20/19 A2961 RMK A01 T02020194  RH  095%=      5-min Rain = 0
KCA1 280950Z 18017KT 20/19 A2961 RMK A01 T02020194  RH  095%=      5-min Rain = 0
KCA1 280951Z 18016KT 20/20 A2961 RMK A01 T02020195  RH  095%=      5-min Rain = 0
KCA1 280952Z 18015KT 20/20 A2961 RMK A01 T02030195  RH  095%=      5-min Rain = 0
KCA1 280953Z 18017KT 20/20 A2961 RMK A01 T02030195  RH  095%=      5-min Rain = 0
KCA1 280954Z 18012KT 20/20 A2961 RMK A01 T02030195  RH  095%=      5-min Rain = 0
KCA1 280955Z 18014KT 20/20 A2961 RMK A01 T02030195  RH  095%=      5-min Rain = 0
KCA1 280956Z 18014KT 20/20 A2961 RMK A01 T02030195  RH  095%=      5-min Rain = 0
KCA1 280957Z 17015KT 20/20 A2961 RMK A01 T02030195  RH  095%=      5-min Rain = 0
KCA1 280958Z 18014KT 20/20 A2961 RMK A01 T02030195  RH  095%=      5-min Rain = 0
KCA1 280959Z 17014KT 20/19 A2961 RMK A01 T02020194  RH  095%=      5-min Rain = 0
KCA1 281000Z 18013G18KT 20/20 A2961 RMK A01 T02030195  RH  095%=      5-min Rain = 0
KCA1 281001Z 17015KT 20/20 A2961 RMK A01 T02030195  RH  095%=      5-min Rain = 0
KCA1 281002Z 17014KT 20/20 A2961 RMK A01 T02030195  RH  095%=      5-min Rain = 0
KCA1 281003Z 18013KT 20/20 A2961 RMK A01 T02030195  RH  095%=      5-min Rain = 0
KCA1 281004Z 17014KT 20/20 A2961 RMK A01 T02020195  RH  095%=      5-min Rain = 0
KCA1 281005Z 17012G17KT 20/20 A2961 RMK A01 T02020195  RH  096%=      5-min Rain = 0
KCA1 281006Z 18013KT 20/20 A2961 RMK A01 T02020195  RH  096%=      5-min Rain = 0
KCA1 281007Z 18013KT 20/20 A2961 RMK A01 T02020195  RH  096%=      5-min Rain = 0
KCA1 281008Z 18015KT 20/20 A2961 RMK A01 T02020195  RH  096%=      5-min Rain = 0
KCA1 281009Z 18014G19KT 20/20 A2961 RMK A01 T02020195  RH  096%=      5-min Rain = 0
KCA1 281010Z 18012G17KT 20/20 A2961 RMK A01 T02020195  RH  096%=      5-min Rain = 0
KCA1 281011Z 17013G18KT 20/20 A2961 RMK A01 T02020195  RH  096%=      5-min Rain = 0
KCA1 281012Z 18014G19KT 20/20 A2961 RMK A01 T02020195  RH  096%=      5-min Rain = 0
KCA1 281013Z 18015KT 20/20 A2961 RMK A01 T02020195  RH  096%=      5-min Rain = 0
KCA1 281014Z 17012KT 20/20 A2961 RMK A01 T02020196  RH  096%=      5-min Rain = 0
KCA1 281015Z 18013KT 20/20 A2961 RMK A01 T02020196  RH  096%=      5-min Rain = 0
KCA1 281016Z 18013KT 20/20 A2961 RMK A01 T02020195  RH  096%=      5-min Rain = 0
KCA1 281017Z 18011KT 20/20 A2961 RMK A01 T02010195  RH  096%=      5-min Rain = 0
KCA1 281018Z 17010KT 20/20 A2961 RMK A01 T02010195  RH  096%=      5-min Rain = 0
KCA1 281019Z 18012KT 20/20 A2961 RMK A01 T02010195  RH  096%=      5-min Rain = 0
KCA1 281020Z 18012KT 20/20 A2961 RMK A01 T02010195  RH  097%=      5-min Rain = 0
KCA1 281021Z 17011KT 20/20 A2961 RMK A01 T02010195  RH  097%=      5-min Rain = 0
KCA1 281022Z 18011KT 20/20 A2961 RMK A01 T02010195  RH  097%=      5-min Rain = 0
KCA1 281023Z 17011KT 20/20 A2961 RMK A01 T02010195  RH  097%=      5-min Rain = 0
KCA1 281024Z 17013KT 20/20 A2961 RMK A01 T02010195  RH  097%=      5-min Rain = 0
KCA1 281025Z 17013KT 20/20 A2961 RMK A01 T02010196  RH  097%=      5-min Rain = 0
KCA1 281026Z 18013KT 20/20 A2961 RMK A01 T02000195  RH  097%=      5-min Rain = 0
KCA1 281027Z 17012G17KT 20/20 A2961 RMK A01 T02000195  RH  097%=      5-min Rain = 0
KCA1 281028Z 18011KT 20/20 A2961 RMK A01 T02010195  RH  097%=      5-min Rain = 0
KCA1 281029Z 18011KT 20/20 A2962 RMK A01 T02010195  RH  097%=      5-min Rain = 0
KCA1 281030Z 18010KT 20/20 A2961 RMK A01 T02010195  RH  097%=      5-min Rain = 0
KCA1 281031Z 18009KT 20/20 A2961 RMK A01 T02010195  RH  097%=      5-min Rain = 0
KCA1 281032Z 17009KT 20/20 A2961 RMK A01 T02000195  RH  097%=      5-min Rain = 0
KCA1 281033Z 18013KT 20/20 A2961 RMK A01 T02000195  RH  097%=      5-min Rain = 0
KCA1 281034Z 17010KT 20/20 A2961 RMK A01 T02000196  RH  097%=      5-min Rain = 0
KCA1 281035Z 18010KT 20/20 A2961 RMK A01 T02000196  RH  097%=      5-min Rain = 0
KCA1 281036Z 18012KT 20/20 A2961 RMK A01 T02000196  RH  097%=      5-min Rain = 0
KCA1 281037Z 18011KT 20/20 A2961 RMK A01 T02000195  RH  097%=      5-min Rain = 0
KCA1 281038Z 18009KT 20/20 A2961 RMK A01 T02000196  RH  097%=      5-min Rain = 0
KCA1 281039Z 18011KT 20/20 A2961 RMK A01 T02000196  RH  097%=      5-min Rain = 0
KCA1 281040Z 18008KT 20/20 A2961 RMK A01 T02010196  RH  097%=      5-min Rain = 0
KCA1 281041Z 18010KT 20/20 A2961 RMK A01 T02000195  RH  097%=      5-min Rain = 0
KCA1 281042Z 18011G17KT 20/20 A2961 RMK A01 T01990195  RH  097%=      5-min Rain = 0
KCA1 281043Z 18012KT 20/20 A2961 RMK A01 T02000196  RH  098%=      5-min Rain = 0
KCA1 281044Z 17011KT 20/20 A2962 RMK A01 T01990196  RH  098%=      5-min Rain = 0
KCA1 281045Z 18012KT 20/20 A2961 RMK A01 T02000196  RH  098%=      5-min Rain = 0
KCA1 281046Z 18011KT 20/20 A2961 RMK A01 T02000196  RH  098%=      5-min Rain = 0
KCA1 281047Z 18009KT 20/20 A2961 RMK A01 T02000196  RH  098%=      5-min Rain = 0
KCA1 281048Z 17012KT 20/20 A2961 RMK A01 T02000196  RH  098%=      5-min Rain = 0
KCA1 281049Z 18009KT 20/20 A2962 RMK A01 T02000196  RH  098%=      5-min Rain = 0
KCA1 281050Z 18009KT 20/20 A2962 RMK A01 T02000196  RH  098%=      5-min Rain = 0
KCA1 281051Z 17010KT 20/20 A2962 RMK A01 T02000196  RH  098%=      5-min Rain = 0
KCA1 281052Z 18010KT 20/20 A2962 RMK A01 T02000196  RH  097%=      5-min Rain = 0
KCA1 281053Z 18007KT 20/20 A2962 RMK A01 T02000196  RH  097%=      5-min Rain = 0
KCA1 281054Z 18007KT 20/20 A2962 RMK A01 T02000196  RH  097%=      5-min Rain = 0
KCA1 281055Z 19006KT 20/20 A2962 RMK A01 T02000195  RH  097%=      5-min Rain = 0
KCA1 281056Z 18008G14KT 20/20 A2962 RMK A01 T01990196  RH  098%=      5-min Rain = 0
KCA1 281057Z 19008KT 20/20 A2962 RMK A01 T01990196  RH  098%=      5-min Rain = 0
KCA1 281058Z 18007KT 20/20 A2962 RMK A01 T01990196  RH  098%=      5-min Rain = 0
KCA1 281059Z 18009KT 20/20 A2962 RMK A01 T01990196  RH  098%=      5-min Rain = 0
KCA1 281100Z 18006KT 20/20 A2962 RMK A01 T01990195  RH  098%=      5-min Rain = 0
KCA1 281101Z 19006KT 20/20 A2962 RMK A01 T01990196  RH  098%=      5-min Rain = 0
KCA1 281102Z 19004KT 20/20 A2962 RMK A01 T01990196  RH  098%=      5-min Rain = 0
KCA1 281103Z 18007KT 20/20 A2962 RMK A01 T01990195  RH  098%=      5-min Rain = 0
KCA1 281104Z 19007KT 20/20 A2962 RMK A01 T01990196  RH  098%=      5-min Rain = 0
KCA1 281105Z 19006KT 20/20 A2962 RMK A01 T01990196  RH  098%=      5-min Rain = 0
KCA1 281106Z 20006KT 20/20 A2962 RMK A01 T01990195  RH  098%=      5-min Rain = 0
KCA1 281107Z 19006KT 20/20 A2962 RMK A01 T01990195  RH  098%=      5-min Rain = 0
KCA1 281108Z 19004KT 20/20 A2962 RMK A01 T01990196  RH  098%=      5-min Rain = 0
KCA1 281109Z 19006KT 20/20 A2962 RMK A01 T01980195  RH  098%=      5-min Rain = 0
KCA1 281110Z 20003KT 20/20 A2962 RMK A01 T01980195  RH  098%=      5-min Rain = 0
KCA1 281111Z 22003KT 20/20 A2963 RMK A01 T01980195  RH  098%=      5-min Rain = 0
KCA1 281112Z 20004KT 20/20 A2963 RMK A01 T01980195  RH  098%=      5-min Rain = 0
KCA1 281113Z 19006KT 20/20 A2963 RMK A01 T01980195  RH  098%=      5-min Rain = 0
KCA1 281114Z 24003KT 20/20 A2963 RMK A01 T01970195  RH  099%=      5-min Rain = 0
KCA1 281115Z 22002KT 20/20 A2963 RMK A01 T01980195  RH  099%=      5-min Rain = 0
KCA1 281116Z 23001KT 20/20 A2963 RMK A01 T01970195  RH  099%=      5-min Rain = 0
KCA1 281117Z 23003KT 20/20 A2963 RMK A01 T01970195  RH  099%=      5-min Rain = 0
KCA1 281118Z 22005KT 20/20 A2963 RMK A01 T01970195  RH  099%=      5-min Rain = 0
KCA1 281119Z 21003KT 20/20 A2963 RMK A01 T01970195  RH  099%=      5-min Rain = 0
KCA1 281120Z 19002KT 20/20 A2963 RMK A01 T01970196  RH  099%=      5-min Rain = 0
KCA1 281121Z 30000KT 20/20 A2963 RMK A01 T01970196  RH  099%=      5-min Rain = 0
KCA1 281122Z 32000KT 20/20 A2963 RMK A01 T01970196  RH  099%=      5-min Rain = 0
KCA1 281123Z 23001KT 20/20 A2963 RMK A01 T01970195  RH  099%=      5-min Rain = 0
KCA1 281124Z 22002KT 20/19 A2963 RMK A01 T01970194  RH  098%=      5-min Rain = 0
KCA1 281125Z 18003KT 20/20 A2963 RMK A01 T01970195  RH  099%=      5-min Rain = 0
KCA1 281126Z 20003KT 20/20 A2963 RMK A01 T01970196  RH  099%=      5-min Rain = 0
KCA1 281127Z 20003KT 20/20 A2963 RMK A01 T01970196  RH  099%=      5-min Rain = 0
KCA1 281128Z 20002KT 20/20 A2963 RMK A01 T01970196  RH  099%=      5-min Rain = 0
KCA1 281129Z 20001KT 20/20 A2963 RMK A01 T01980196  RH  099%=      5-min Rain = 0
KCA1 281130Z 18003KT 20/20 A2963 RMK A01 T01980196  RH  099%=      5-min Rain = 0
KCA1 281131Z 19003KT 20/20 A2963 RMK A01 T01980196  RH  099%=      5-min Rain = 0
KCA1 281132Z 18004KT 20/20 A2963 RMK A01 T01980196  RH  099%=      5-min Rain = 0
KCA1 281133Z 18004KT 20/20 A2963 RMK A01 T01980196  RH  099%=      5-min Rain = 0
KCA1 281134Z 19004KT 20/20 A2963 RMK A01 T01980196  RH  099%=      5-min Rain = 0
KCA1 281135Z 20004KT 20/20 A2963 RMK A01 T01980196  RH  099%=      5-min Rain = 0
KCA1 281136Z 18003KT 20/20 A2963 RMK A01 T01970195  RH  099%=      5-min Rain = 0
KCA1 281137Z 19005KT 20/20 A2963 RMK A01 T01970195  RH  099%=      5-min Rain = 0
KCA1 281138Z 20005KT 20/20 A2963 RMK A01 T01970196  RH  099%=      5-min Rain = 0
KCA1 281139Z 20004KT 20/20 A2963 RMK A01 T01970196  RH  099%=      5-min Rain = 0
KCA1 281140Z 19003KT 20/20 A2964 RMK A01 T01980196  RH  099%=      5-min Rain = 0
KCA1 281141Z 17002KT 20/20 A2964 RMK A01 T01980195  RH  099%=      5-min Rain = 0
KCA1 281142Z 18003KT 20/20 A2964 RMK A01 T01980196  RH  099%=      5-min Rain = 0
KCA1 281143Z 18006KT 20/20 A2963 RMK A01 T01980196  RH  099%=      5-min Rain = 0
KCA1 281144Z 19005KT 20/20 A2963 RMK A01 T01970195  RH  099%=      5-min Rain = 0
KCA1 281145Z 17005KT 20/20 A2963 RMK A01 T01970195  RH  099%=      5-min Rain = 0
KCA1 281146Z 18005KT 20/20 A2963 RMK A01 T01970195  RH  099%=      5-min Rain = 0
KCA1 281147Z 18005KT 20/20 A2963 RMK A01 T01970195  RH  099%=      5-min Rain = 0
KCA1 281148Z 19007KT 20/20 A2963 RMK A01 T01970195  RH  099%=      5-min Rain = 0
KCA1 281149Z 18007KT 20/20 A2963 RMK A01 T01970196  RH  099%=      5-min Rain = 0
KCA1 281150Z 17008KT 20/20 A2963 RMK A01 T01970195  RH  099%=      5-min Rain = 0
KCA1 281151Z 17008KT 20/20 A2963 RMK A01 T01970195  RH  099%=      5-min Rain = 0
KCA1 281152Z 18007KT 20/20 A2964 RMK A01 T01970195  RH  099%=      5-min Rain = 0
KCA1 281153Z 18009KT 20/20 A2963 RMK A01 T01970195  RH  099%=      5-min Rain = 0
KCA1 281154Z 18010KT 20/20 A2963 RMK A01 T01970195  RH  099%=      5-min Rain = 0
KCA1 281155Z 19007KT 20/20 A2963 RMK A01 T01970195  RH  099%=      5-min Rain = 0
KCA1 281156Z 18006KT 20/20 A2963 RMK A01 T01970195  RH  099%=      5-min Rain = 0
KCA1 281157Z 19008KT 20/20 A2963 RMK A01 T01970195  RH  099%=      5-min Rain = 0
KCA1 281158Z 18008KT 20/20 A2963 RMK A01 T01970195  RH  099%=      5-min Rain = 0
KCA1 281159Z 17006KT 20/20 A2963 RMK A01 T01970195  RH  099%=      5-min Rain = 0
KCA1 281200Z 18006KT 20/20 A2963 RMK A01 T01970195  RH  099%=      5-min Rain = 0
KCA1 281201Z 18005KT 20/20 A2963 RMK A01 T01960195  RH  099%=      5-min Rain = 0
KCA1 281202Z 18006KT 20/20 A2963 RMK A01 T01960195  RH  099%=      5-min Rain = 0
KCA1 281203Z 19008KT 20/20 A2963 RMK A01 T01960195  RH  099%=      5-min Rain = 0
KCA1 281204Z 18009KT 20/20 A2963 RMK A01 T01960196  RH  100%=      5-min Rain = 0
KCA1 281205Z 18009KT 20/20 A2963 RMK A01 T01970196  RH  100%=      5-min Rain = 0
KCA1 281206Z 17007KT 20/20 A2963 RMK A01 T01970196  RH  099%=      5-min Rain = 0
KCA1 281207Z 18007KT 20/20 A2963 RMK A01 T01970196  RH  099%=      5-min Rain = 0
KCA1 281208Z 18007KT 20/20 A2963 RMK A01 T01980196  RH  099%=      5-min Rain = 0
KCA1 281209Z 18007KT 20/20 A2963 RMK A01 T01980196  RH  099%=      5-min Rain = 0
KCA1 281210Z 18007KT 20/20 A2963 RMK A01 T01980196  RH  099%=      5-min Rain = 0
KCA1 281211Z 17007KT 20/20 A2963 RMK A01 T01980196  RH  099%=      5-min Rain = 0
KCA1 281212Z 18007KT 20/20 A2963 RMK A01 T01980197  RH  099%=      5-min Rain = 0
KCA1 281213Z 18008KT 20/20 A2963 RMK A01 T01980197  RH  099%=      5-min Rain = 0
KCA1 281214Z 18007KT 20/20 A2963 RMK A01 T01980196  RH  099%=      5-min Rain = 0
KCA1 281215Z 18007KT 20/20 A2963 RMK A01 T01980197  RH  099%=      5-min Rain = 0
KCA1 281216Z 19006KT 20/20 A2963 RMK A01 T01980197  RH  099%=      5-min Rain = 0
KCA1 281217Z 19007KT 20/20 A2963 RMK A01 T01980196  RH  099%=      5-min Rain = 0
KCA1 281218Z 19008KT 20/20 A2963 RMK A01 T01980196  RH  099%=      5-min Rain = 0
KCA1 281219Z 18009KT 20/20 A2964 RMK A01 T01980196  RH  099%=      5-min Rain = 0
KCA1 281220Z 18006KT 20/20 A2964 RMK A01 T01980197  RH  099%=      5-min Rain = 0
KCA1 281221Z 18009KT 20/20 A2964 RMK A01 T01980197  RH  099%=      5-min Rain = 0
KCA1 281222Z 17010KT 20/20 A2964 RMK A01 T01980197  RH  099%=      5-min Rain = 0
KCA1 281223Z 18007KT 20/20 A2964 RMK A01 T01980197  RH  099%=      5-min Rain = 0
KCA1 281224Z 17009KT 20/20 A2964 RMK A01 T01980197  RH  100%=      5-min Rain = 0
KCA1 281225Z 17009KT 20/20 A2964 RMK A01 T01970197  RH  100%=      5-min Rain = 0
KCA1 281226Z 18009KT 20/20 A2964 RMK A01 T01980197  RH  100%=      5-min Rain = 0
KCA1 281227Z 18009KT 20/20 A2964 RMK A01 T01980198  RH  100%=      5-min Rain = 0
KCA1 281228Z 17008KT 20/20 A2964 RMK A01 T01990198  RH  100%=      5-min Rain = 0
KCA1 281229Z 17008KT 20/20 A2964 RMK A01 T01990198  RH  099%=      5-min Rain = 0
KCA1 281230Z 18009KT 20/20 A2964 RMK A01 T01990198  RH  099%=      5-min Rain = 0
KCA1 281231Z 19009KT 20/20 A2964 RMK A01 T01990198  RH  099%=      5-min Rain = 0
KCA1 281232Z 18006KT 20/20 A2964 RMK A01 T02000198  RH  099%=      5-min Rain = 0
KCA1 281233Z 17005KT 20/20 A2964 RMK A01 T02000198  RH  099%=      5-min Rain = 0
KCA1 281234Z 17009KT 20/20 A2964 RMK A01 T02000198  RH  099%=      5-min Rain = 0
KCA1 281235Z 18008KT 20/20 A2964 RMK A01 T02000198  RH  099%=      5-min Rain = 0
KCA1 281236Z 18006KT 20/20 A2964 RMK A01 T02000198  RH  099%=      5-min Rain = 0
KCA1 281237Z 18008KT 20/20 A2964 RMK A01 T02010199  RH  099%=      5-min Rain = 0
KCA1 281238Z 18008KT 20/20 A2964 RMK A01 T02010199  RH  098%=      5-min Rain = 0
KCA1 281239Z 18010KT 20/20 A2964 RMK A01 T02020199  RH  098%=      5-min Rain = 0
KCA1 281240Z 18008KT 20/20 A2964 RMK A01 T02020199  RH  098%=      5-min Rain = 0
KCA1 281241Z 18007KT 20/20 A2964 RMK A01 T02020199  RH  098%=      5-min Rain = 0
KCA1 281242Z 18007KT 20/20 A2964 RMK A01 T02020199  RH  098%=      5-min Rain = 0
KCA1 281243Z 19010KT 20/20 A2964 RMK A01 T02020199  RH  098%=      5-min Rain = 0
KCA1 281244Z 18011KT 20/20 A2964 RMK A01 T02020198  RH  097%=      5-min Rain = 0
KCA1 281245Z 18011KT 20/20 A2964 RMK A01 T02020198  RH  097%=      5-min Rain = 0
KCA1 281246Z 18009KT 20/20 A2964 RMK A01 T02020198  RH  097%=      5-min Rain = 0
KCA1 281247Z 18009KT 20/20 A2964 RMK A01 T02020198  RH  097%=      5-min Rain = 0
KCA1 281248Z 19011KT 20/20 A2964 RMK A01 T02020198  RH  097%=      5-min Rain = 0
KCA1 281249Z 19010KT 20/20 A2964 RMK A01 T02020198  RH  097%=      5-min Rain = 0
KCA1 281250Z 19008KT 20/20 A2964 RMK A01 T02020198  RH  098%=      5-min Rain = 0
KCA1 281251Z 18009KT 20/20 A2964 RMK A01 T02030199  RH  098%=      5-min Rain = 0
KCA1 281252Z 18007KT 20/20 A2964 RMK A01 T02020199  RH  098%=      5-min Rain = 0
KCA1 281253Z 18010KT 20/20 A2964 RMK A01 T02020198  RH  098%=      5-min Rain = 0
KCA1 281254Z 19009KT 20/20 A2964 RMK A01 T02020198  RH  098%=      5-min Rain = 0
KCA1 281255Z 18010KT 20/20 A2964 RMK A01 T02020198  RH  098%=      5-min Rain = 0
KCA1 281256Z 19011KT 20/20 A2964 RMK A01 T02020198  RH  097%=      5-min Rain = 0
KCA1 281257Z 18011KT 20/20 A2964 RMK A01 T02020198  RH  097%=      5-min Rain = 0
KCA1 281258Z 18010KT 20/20 A2964 RMK A01 T02020198  RH  097%=      5-min Rain = 0
KCA1 281259Z 18009KT 20/20 A2964 RMK A01 T02020198  RH  098%=      5-min Rain = 0
KCA1 281300Z 18010KT 20/20 A2964 RMK A01 T02020198  RH  098%=      5-min Rain = 0
KCA1 281301Z 18009KT 20/20 A2964 RMK A01 T02020198  RH  098%=      5-min Rain = 0
KCA1 281302Z 18009KT 20/20 A2964 RMK A01 T02020198  RH  098%=      5-min Rain = 0
KCA1 281303Z 18010KT 20/20 A2964 RMK A01 T02020198  RH  098%=      5-min Rain = 0
KCA1 281304Z 19011KT 20/20 A2964 RMK A01 T02010197  RH  098%=      5-min Rain = 0
KCA1 281305Z 18010KT 20/20 A2964 RMK A01 T02010197  RH  098%=      5-min Rain = 0
KCA1 281306Z 19010KT 20/20 A2964 RMK A01 T02010197  RH  098%=      5-min Rain = 0
KCA1 281307Z 18012KT 20/20 A2964 RMK A01 T02020198  RH  098%=      5-min Rain = 0
KCA1 281308Z 20011KT 20/20 A2964 RMK A01 T02020198  RH  097%=      5-min Rain = 0
KCA1 281309Z 19010KT 20/20 A2964 RMK A01 T02020198  RH  097%=      5-min Rain = 0
KCA1 281310Z 19012KT 20/20 A2964 RMK A01 T02020198  RH  097%=      5-min Rain = 0
KCA1 281311Z 19014KT 20/20 A2964 RMK A01 T02020198  RH  097%=      5-min Rain = 0
KCA1 281312Z 19011KT 20/20 A2964 RMK A01 T02030198  RH  097%=      5-min Rain = 0
KCA1 281313Z 19010KT 20/20 A2964 RMK A01 T02030198  RH  097%=      5-min Rain = 0
KCA1 281314Z 19012KT 20/20 A2964 RMK A01 T02030198  RH  097%=      5-min Rain = 0
KCA1 281315Z 20009KT 20/20 A2964 RMK A01 T02030198  RH  097%=      5-min Rain = 0
KCA1 281316Z 19011KT 20/20 A2964 RMK A01 T02040199  RH  097%=      5-min Rain = 0
KCA1 281317Z 19011KT 20/20 A2964 RMK A01 T02040199  RH  097%=      5-min Rain = 0
KCA1 281318Z 19011KT 20/20 A2964 RMK A01 T02040199  RH  097%=      5-min Rain = 0
KCA1 281319Z 19013KT 21/20 A2964 RMK A01 T02050199  RH  096%=      5-min Rain = 0
KCA1 281320Z 19012KT 21/20 A2964 RMK A01 T02050198  RH  096%=      5-min Rain = 0
KCA1 281321Z 19013KT 21/20 A2964 RMK A01 T02050198  RH  096%=      5-min Rain = 0
KCA1 281322Z 19013KT 21/20 A2964 RMK A01 T02050198  RH  096%=      5-min Rain = 0
KCA1 281323Z 19013KT 21/20 A2964 RMK A01 T02060199  RH  096%=      5-min Rain = 0
KCA1 281324Z 19014KT 21/20 A2964 RMK A01 T02060199  RH  095%=      5-min Rain = 0
KCA1 281325Z 19014KT 21/20 A2964 RMK A01 T02060198  RH  095%=      5-min Rain = 0
KCA1 281326Z 19012KT 21/20 A2964 RMK A01 T02070198  RH  095%=      5-min Rain = 0
KCA1 281327Z 19011KT 21/20 A2964 RMK A01 T02070199  RH  095%=      5-min Rain = 0
KCA1 281328Z 19010KT 21/20 A2964 RMK A01 T02080200  RH  095%=      5-min Rain = 0
KCA1 281329Z 20010KT 21/20 A2964 RMK A01 T02080199  RH  095%=      5-min Rain = 0
KCA1 281330Z 19011KT 21/20 A2964 RMK A01 T02080199  RH  095%=      5-min Rain = 0
KCA1 281331Z 19011KT 21/20 A2964 RMK A01 T02080199  RH  094%=      5-min Rain = 0
KCA1 281332Z 20009KT 21/20 A2964 RMK A01 T02080199  RH  094%=      5-min Rain = 0
KCA1 281333Z 19009KT 21/20 A2964 RMK A01 T02080199  RH  095%=      5-min Rain = 0
KCA1 281334Z 19009KT 21/20 A2964 RMK A01 T02080199  RH  095%=      5-min Rain = 0
KCA1 281335Z 20011KT 21/20 A2964 RMK A01 T02090200  RH  094%=      5-min Rain = 0
KCA1 281336Z 20012KT 21/20 A2964 RMK A01 T02100199  RH  093%=      5-min Rain = 0
KCA1 281337Z 20011KT 21/20 A2964 RMK A01 T02100198  RH  093%=      5-min Rain = 0
KCA1 281338Z 18010KT 21/20 A2964 RMK A01 T02110199  RH  092%=      5-min Rain = 0
KCA1 281339Z 20011KT 21/20 A2964 RMK A01 T02120199  RH  092%=      5-min Rain = 0
KCA1 281340Z 19012KT 21/20 A2964 RMK A01 T02130199  RH  092%=      5-min Rain = 0
KCA1 281341Z 19013KT 21/20 A2964 RMK A01 T02140199  RH  092%=      5-min Rain = 0
KCA1 281342Z 20013KT 22/20 A2964 RMK A01 T02150199  RH  091%=      5-min Rain = 0
KCA1 281343Z 20013KT 22/20 A2964 RMK A01 T02160199  RH  090%=      5-min Rain = 0
KCA1 281344Z 20013KT 22/20 A2964 RMK A01 T02160198  RH  090%=      5-min Rain = 0
KCA1 281345Z 20009KT 22/20 A2964 RMK A01 T02150199  RH  090%=      5-min Rain = 0
KCA1 281346Z 20011G16KT 22/20 A2964 RMK A01 T02160200  RH  091%=      5-min Rain = 0
KCA1 281347Z 19012KT 22/20 A2964 RMK A01 T02160199  RH  090%=      5-min Rain = 0
KCA1 281348Z 19013KT 22/20 A2964 RMK A01 T02160199  RH  090%=      5-min Rain = 0
KCA1 281349Z 20013KT 22/20 A2964 RMK A01 T02170198  RH  089%=      5-min Rain = 0
KCA1 281350Z 19013KT 22/20 A2964 RMK A01 T02170198  RH  089%=      5-min Rain = 0
KCA1 281351Z 20014KT 22/20 A2964 RMK A01 T02180198  RH  089%=      5-min Rain = 0
KCA1 281352Z 20013KT 22/20 A2964 RMK A01 T02180197  RH  088%=      5-min Rain = 0
KCA1 281353Z 20012KT 22/20 A2964 RMK A01 T02180198  RH  088%=      5-min Rain = 0
KCA1 281354Z 20010KT 22/20 A2964 RMK A01 T02190199  RH  089%=      5-min Rain = 0
KCA1 281355Z 21009KT 22/20 A2964 RMK A01 T02200200  RH  089%=      5-min Rain = 0
KCA1 281356Z 21007KT 22/20 A2964 RMK A01 T02200200  RH  088%=      5-min Rain = 0
KCA1 281357Z 20007KT 22/20 A2964 RMK A01 T02200201  RH  089%=      5-min Rain = 0
KCA1 281358Z 21008KT 22/20 A2964 RMK A01 T02210203  RH  089%=      5-min Rain = 0
KCA1 281359Z 20008KT 22/20 A2964 RMK A01 T02220203  RH  089%=      5-min Rain = 0
KCA1 281400Z 21011KT 22/20 A2964 RMK A01 T02220201  RH  087%=      5-min Rain = 0
KCA1 281401Z 21012KT 22/20 A2964 RMK A01 T02210199  RH  087%=      5-min Rain = 0
KCA1 281402Z 20011KT 22/20 A2964 RMK A01 T02210199  RH  088%=      5-min Rain = 0
KCA1 281403Z 21010KT 22/20 A2964 RMK A01 T02200200  RH  088%=      5-min Rain = 0
KCA1 281404Z 21011KT 22/20 A2964 RMK A01 T02200199  RH  088%=      5-min Rain = 0
KCA1 281405Z 21011KT 22/20 A2964 RMK A01 T02200198  RH  087%=      5-min Rain = 0
KCA1 281406Z 21012KT 22/20 A2964 RMK A01 T02200198  RH  087%=      5-min Rain = 0
KCA1 281407Z 20011KT 22/20 A2964 RMK A01 T02210199  RH  087%=      5-min Rain = 0
KCA1 281408Z 21010KT 22/20 A2964 RMK A01 T02210198  RH  086%=      5-min Rain = 0
KCA1 281409Z 21011KT 22/20 A2964 RMK A01 T02230199  RH  087%=      5-min Rain = 0
KCA1 281410Z 20011KT 22/20 A2964 RMK A01 T02230199  RH  086%=      5-min Rain = 0
KCA1 281411Z 21009KT 22/20 A2964 RMK A01 T02230199  RH  087%=      5-min Rain = 0
KCA1 281412Z 20010KT 22/20 A2964 RMK A01 T02230200  RH  087%=      5-min Rain = 0
KCA1 281413Z 20011KT 23/20 A2964 RMK A01 T02250199  RH  086%=      5-min Rain = 0
KCA1 281414Z 20009KT 23/20 A2964 RMK A01 T02250199  RH  085%=      5-min Rain = 0
KCA1 281415Z 19009KT 23/20 A2964 RMK A01 T02260200  RH  086%=      5-min Rain = 0
KCA1 281416Z 19009KT 23/20 A2964 RMK A01 T02270201  RH  085%=      5-min Rain = 0
KCA1 281417Z 19011KT 23/20 A2964 RMK A01 T02290200  RH  084%=      5-min Rain = 0
KCA1 281418Z 21010KT 23/20 A2964 RMK A01 T02290199  RH  083%=      5-min Rain = 0
KCA1 281419Z 21011KT 23/20 A2964 RMK A01 T02300198  RH  082%=      5-min Rain = 0
KCA1 281420Z 19010KT 23/20 A2964 RMK A01 T02300198  RH  083%=      5-min Rain = 0
KCA1 281421Z 20007KT 23/20 A2964 RMK A01 T02300200  RH  083%=      5-min Rain = 0
KCA1 281422Z 19009KT 23/20 A2964 RMK A01 T02310202  RH  083%=      5-min Rain = 0
KCA1 281423Z 19011KT 23/20 A2964 RMK A01 T02320201  RH  083%=      5-min Rain = 0
KCA1 281424Z 21012KT 23/20 A2964 RMK A01 T02330200  RH  082%=      5-min Rain = 0
KCA1 281425Z 20012KT 23/20 A2964 RMK A01 T02330199  RH  081%=      5-min Rain = 0
KCA1 281426Z 19011KT 23/20 A2964 RMK A01 T02320198  RH  081%=      5-min Rain = 0
KCA1 281427Z 20010KT 23/20 A2964 RMK A01 T02310197  RH  081%=      5-min Rain = 0
KCA1 281428Z 19010KT 23/20 A2964 RMK A01 T02310197  RH  081%=      5-min Rain = 0
KCA1 281429Z 20011KT 23/20 A2964 RMK A01 T02310197  RH  081%=      5-min Rain = 0
KCA1 281430Z 19010KT 23/20 A2964 RMK A01 T02320200  RH  082%=      5-min Rain = 0
KCA1 281431Z 20009KT 23/20 A2964 RMK A01 T02340200  RH  082%=      5-min Rain = 0
KCA1 281432Z 20011KT 24/20 A2964 RMK A01 T02350201  RH  081%=      5-min Rain = 0
KCA1 281433Z 19012KT 24/20 A2964 RMK A01 T02350198  RH  080%=      5-min Rain = 0
KCA1 281434Z 19012KT 23/20 A2964 RMK A01 T02340197  RH  080%=      5-min Rain = 0
KCA1 281435Z 19011KT 23/20 A2964 RMK A01 T02320197  RH  081%=      5-min Rain = 0
KCA1 281436Z 19010KT 23/20 A2964 RMK A01 T02310197  RH  082%=      5-min Rain = 0
KCA1 281437Z 19014KT 23/20 A2964 RMK A01 T02300195  RH  080%=      5-min Rain = 0
KCA1 281438Z 19012KT 23/19 A2964 RMK A01 T02310190  RH  078%=      5-min Rain = 0
KCA1 281439Z 21010KT 23/19 A2964 RMK A01 T02330193  RH  078%=      5-min Rain = 0
KCA1 281440Z 21011KT 23/20 A2964 RMK A01 T02340196  RH  079%=      5-min Rain = 0
KCA1 281441Z 21011KT 24/20 A2964 RMK A01 T02350195  RH  078%=      5-min Rain = 0
KCA1 281442Z 21011KT 24/19 A2964 RMK A01 T02350194  RH  078%=      5-min Rain = 0
KCA1 281443Z 20010KT 23/19 A2964 RMK A01 T02340193  RH  077%=      5-min Rain = 0
KCA1 281444Z 20011KT 24/19 A2964 RMK A01 T02350192  RH  077%=      5-min Rain = 0
KCA1 281445Z 20014KT 24/19 A2964 RMK A01 T02370191  RH  075%=      5-min Rain = 0
KCA1 281446Z 22011KT 24/19 A2964 RMK A01 T02380193  RH  076%=      5-min Rain = 0
KCA1 281447Z 22013KT 24/19 A2964 RMK A01 T02380190  RH  074%=      5-min Rain = 0
KCA1 281448Z 21012KT 24/19 A2964 RMK A01 T02390190  RH  074%=      5-min Rain = 0
KCA1 281449Z 20012KT 24/19 A2964 RMK A01 T02390190  RH  074%=      5-min Rain = 0
KCA1 281450Z 20010KT 24/19 A2964 RMK A01 T02380189  RH  074%=      5-min Rain = 0
KCA1 281451Z 21009KT 24/19 A2964 RMK A01 T02380191  RH  075%=      5-min Rain = 0
KCA1 281452Z 20012KT 24/20 A2964 RMK A01 T02400195  RH  076%=      5-min Rain = 0
KCA1 281453Z 20014KT 24/19 A2964 RMK A01 T02410190  RH  073%=      5-min Rain = 0
KCA1 281454Z 21012KT 24/19 A2964 RMK A01 T02410189  RH  073%=      5-min Rain = 0
KCA1 281455Z 21011KT 24/19 A2963 RMK A01 T02410189  RH  073%=      5-min Rain = 0
KCA1 281456Z 21014KT 24/19 A2963 RMK A01 T02410188  RH  072%=      5-min Rain = 0
KCA1 281457Z 20012KT 24/19 A2963 RMK A01 T02410188  RH  072%=      5-min Rain = 0
KCA1 281458Z 21011KT 24/19 A2964 RMK A01 T02410187  RH  072%=      5-min Rain = 0
KCA1 281459Z 21011G16KT 24/19 A2964 RMK A01 T02420187  RH  071%=      5-min Rain = 0
KCA1 281500Z 21014KT 24/19 A2964 RMK A01 T02430185  RH  070%=      5-min Rain = 0
KCA1 281501Z 21013KT 24/18 A2964 RMK A01 T02430184  RH  069%=      5-min Rain = 0
KCA1 281502Z 21012KT 24/18 A2964 RMK A01 T02430180  RH  068%=      5-min Rain = 0
KCA1 281503Z 22011G16KT 24/18 A2964 RMK A01 T02430180  RH  068%=      5-min Rain = 0
KCA1 281504Z 21011KT 24/18 A2964 RMK A01 T02440181  RH  068%=      5-min Rain = 0
KCA1 281505Z 21013KT 25/18 A2964 RMK A01 T02450182  RH  068%=      5-min Rain = 0
KCA1 281506Z 21012KT 25/18 A2964 RMK A01 T02460180  RH  067%=      5-min Rain = 0
KCA1 281507Z 20012KT 25/18 A2964 RMK A01 T02450178  RH  066%=      5-min Rain = 0
KCA1 281508Z 20011KT 24/18 A2964 RMK A01 T02440179  RH  067%=      5-min Rain = 0
KCA1 281509Z 21015KT 24/18 A2963 RMK A01 T02440177  RH  066%=      5-min Rain = 0
KCA1 281510Z 21012KT 25/18 A2964 RMK A01 T02450175  RH  065%=      5-min Rain = 0
KCA1 281511Z 23010KT 25/18 A2964 RMK A01 T02450180  RH  067%=      5-min Rain = 0
KCA1 281512Z 22014KT 25/18 A2964 RMK A01 T02470179  RH  066%=      5-min Rain = 0
KCA1 281513Z 22012KT 25/17 A2964 RMK A01 T02480173  RH  063%=      5-min Rain = 0
KCA1 281514Z 22012KT 25/17 A2964 RMK A01 T02480169  RH  062%=      5-min Rain = 0
KCA1 281515Z 22013KT 25/17 A2964 RMK A01 T02480170  RH  062%=      5-min Rain = 0
KCA1 281516Z 23011KT 25/17 A2964 RMK A01 T02480171  RH  062%=      5-min Rain = 0
KCA1 281517Z 24010KT 25/17 A2964 RMK A01 T02480172  RH  063%=      5-min Rain = 0
KCA1 281518Z 23012KT 25/17 A2964 RMK A01 T02500171  RH  062%=      5-min Rain = 0
KCA1 281519Z 23012G18KT 25/17 A2964 RMK A01 T02500171  RH  061%=      5-min Rain = 0
KCA1 281520Z 24014KT 25/15 A2964 RMK A01 T02500145  RH  052%=      5-min Rain = 0
KCA1 281521Z 25014KT 25/13 A2964 RMK A01 T02490132  RH  048%=      5-min Rain = 0
KCA1 281522Z 25014KT 25/13 A2964 RMK A01 T02470126  RH  047%=      5-min Rain = 0
KCA1 281523Z 24014KT 25/12 A2964 RMK A01 T02460120  RH  045%=      5-min Rain = 0
KCA1 281524Z 25016KT 25/12 A2964 RMK A01 T02450117  RH  045%=      5-min Rain = 0
KCA1 281525Z 25012KT 24/12 A2964 RMK A01 T02430116  RH  045%=      5-min Rain = 0
KCA1 281526Z 25013KT 24/12 A2964 RMK A01 T02430120  RH  046%=      5-min Rain = 0
KCA1 281527Z 25014KT 24/11 A2964 RMK A01 T02430114  RH  044%=      5-min Rain = 0
KCA1 281528Z 25013KT 24/12 A2964 RMK A01 T02420115  RH  045%=      5-min Rain = 0
KCA1 281529Z 25013KT 24/12 A2964 RMK A01 T02420121  RH  047%=      5-min Rain = 0
KCA1 281530Z 24012KT 24/12 A2964 RMK A01 T02420117  RH  045%=      5-min Rain = 0
KCA1 281531Z 24014KT 24/12 A2964 RMK A01 T02420115  RH  045%=      5-min Rain = 0
KCA1 281532Z 24013KT 24/11 A2964 RMK A01 T02420105  RH  042%=      5-min Rain = 0
KCA1 281533Z 23011KT 24/11 A2964 RMK A01 T02420110  RH  043%=      5-min Rain = 0
KCA1 281534Z 23013KT 24/11 A2964 RMK A01 T02420113  RH  044%=      5-min Rain = 0
KCA1 281535Z 23011KT 24/11 A2964 RMK A01 T02420114  RH  045%=      5-min Rain = 0
KCA1 281536Z 22011KT 24/12 A2964 RMK A01 T02420115  RH  045%=      5-min Rain = 0
KCA1 281537Z 22013KT 24/11 A2964 RMK A01 T02420111  RH  044%=      5-min Rain = 0
KCA1 281538Z 23011KT 24/11 A2964 RMK A01 T02410109  RH  043%=      5-min Rain = 0
KCA1 281539Z 22010KT 24/12 A2964 RMK A01 T02410118  RH  046%=      5-min Rain = 0
KCA1 281540Z 22010KT 24/11 A2964 RMK A01 T02410112  RH  044%=      5-min Rain = 0
KCA1 281541Z 22012KT 24/11 A2964 RMK A01 T02420112  RH  044%=      5-min Rain = 0
KCA1 281542Z 23011KT 24/11 A2964 RMK A01 T02420110  RH  043%=      5-min Rain = 0
KCA1 281543Z 24011KT 24/11 A2964 RMK A01 T02420110  RH  044%=      5-min Rain = 0
KCA1 281544Z 23009KT 24/12 A2964 RMK A01 T02410117  RH  046%=      5-min Rain = 0
KCA1 281545Z 22011KT 24/12 A2964 RMK A01 T02420116  RH  045%=      5-min Rain = 0
KCA1 281546Z 23011KT 24/11 A2964 RMK A01 T02430112  RH  044%=      5-min Rain = 0
KCA1 281547Z 23010KT 24/11 A2964 RMK A01 T02420112  RH  044%=      5-min Rain = 0
KCA1 281548Z 23010KT 24/12 A2964 RMK A01 T02430115  RH  045%=      5-min Rain = 0
KCA1 281549Z 22010KT 24/11 A2964 RMK A01 T02420112  RH  044%=      5-min Rain = 0
KCA1 281550Z 23011KT 24/11 A2964 RMK A01 T02430113  RH  044%=      5-min Rain = 0
KCA1 281551Z 23008KT 24/11 A2964 RMK A01 T02430114  RH  044%=      5-min Rain = 0
KCA1 281552Z 23010KT 24/11 A2964 RMK A01 T02440114  RH  044%=      5-min Rain = 0
KCA1 281553Z 23011KT 24/11 A2964 RMK A01 T02440107  RH  042%=      5-min Rain = 0
KCA1 281554Z 22008KT 24/11 A2964 RMK A01 T02440114  RH  044%=      5-min Rain = 0
KCA1 281555Z 24011KT 25/11 A2964 RMK A01 T02450114  RH  044%=      5-min Rain = 0
KCA1 281556Z 24010KT 25/12 A2964 RMK A01 T02460121  RH  046%=      5-min Rain = 0
KCA1 281557Z 23011KT 25/11 A2964 RMK A01 T02470110  RH  042%=      5-min Rain = 0
KCA1 281558Z 24011KT 25/11 A2964 RMK A01 T02470109  RH  042%=      5-min Rain = 0
KCA1 281559Z 23012KT 25/11 A2964 RMK A01 T02470109  RH  042%=      5-min Rain = 0
KCA1 281600Z 24010KT 25/11 A2964 RMK A01 T02470108  RH  042%=      5-min Rain = 0
KCA1 281601Z 22009KT 25/12 A2964 RMK A01 T02470115  RH  044%=      5-min Rain = 0
KCA1 281602Z 22010KT 25/11 A2964 RMK A01 T02480110  RH  042%=      5-min Rain = 0
KCA1 281603Z 22007KT 25/11 A2964 RMK A01 T02480111  RH  042%=      5-min Rain = 0
KCA1 281604Z 22012KT 25/12 A2964 RMK A01 T02490116  RH  043%=      5-min Rain = 0
KCA1 281605Z 22012KT 25/11 A2964 RMK A01 T02510112  RH  042%=      5-min Rain = 0
KCA1 281606Z 23010KT 25/11 A2964 RMK A01 T02510109  RH  041%=      5-min Rain = 0
KCA1 281607Z 23011KT 25/11 A2964 RMK A01 T02510112  RH  042%=      5-min Rain = 0
KCA1 281608Z 23011KT 25/10 A2964 RMK A01 T02510101  RH  039%=      5-min Rain = 0
KCA1 281609Z 24010KT 25/12 A2964 RMK A01 T02500116  RH  043%=      5-min Rain = 0
KCA1 281610Z 24009KT 25/12 A2964 RMK A01 T02510118  RH  043%=      5-min Rain = 0
KCA1 281611Z 24012KT 25/12 A2964 RMK A01 T02520116  RH  043%=      5-min Rain = 0
KCA1 281612Z 25010KT 25/12 A2964 RMK A01 T02530115  RH  042%=      5-min Rain = 0
KCA1 281613Z 24011KT 25/12 A2964 RMK A01 T02540115  RH  042%=      5-min Rain = 0
KCA1 281614Z 23010KT 25/11 A2964 RMK A01 T02530110  RH  041%=      5-min Rain = 0
KCA1 281615Z 24009KT 25/11 A2964 RMK A01 T02540113  RH  041%=      5-min Rain = 0
KCA1 281616Z 22009KT 25/12 A2964 RMK A01 T02540117  RH  042%=      5-min Rain = 0
KCA1 281617Z 23009KT 25/12 A2964 RMK A01 T02540115  RH  042%=      5-min Rain = 0
KCA1 281618Z 24009KT 26/12 A2964 RMK A01 T02550119  RH  043%=      5-min Rain = 0
KCA1 281619Z 24007KT 26/12 A2964 RMK A01 T02550115  RH  041%=      5-min Rain = 0
KCA1 281620Z 25010KT 26/12 A2964 RMK A01 T02550123  RH  044%=      5-min Rain = 0
KCA1 281621Z 25015KT 26/11 A2964 RMK A01 T02570113  RH  040%=      5-min Rain = 0
KCA1 281622Z 24011KT 26/11 A2964 RMK A01 T02560111  RH  040%=      5-min Rain = 0
KCA1 281623Z 23011KT 26/12 A2964 RMK A01 T02560115  RH  041%=      5-min Rain = 0
KCA1 281624Z 25009KT 26/11 A2964 RMK A01 T02560108  RH  039%=      5-min Rain = 0
KCA1 281625Z 26010KT 26/11 A2964 RMK A01 T02560112  RH  040%=      5-min Rain = 0
KCA1 281626Z 26010KT 26/11 A2964 RMK A01 T02570109  RH  039%=      5-min Rain = 0
KCA1 281627Z 26010KT 26/11 A2964 RMK A01 T02570108  RH  039%=      5-min Rain = 0
KCA1 281628Z 26011KT 26/11 A2964 RMK A01 T02580107  RH  039%=      5-min Rain = 0
KCA1 281629Z 25011KT 26/11 A2964 RMK A01 T02570107  RH  039%=      5-min Rain = 0
KCA1 281630Z 24012KT 26/11 A2965 RMK A01 T02580110  RH  039%=      5-min Rain = 0
KCA1 281631Z 24010KT 26/11 A2965 RMK A01 T02590111  RH  039%=      5-min Rain = 0
KCA1 281632Z 24010KT 26/11 A2965 RMK A01 T02590110  RH  039%=      5-min Rain = 0
KCA1 281633Z 24012KT 26/11 A2965 RMK A01 T02590109  RH  039%=      5-min Rain = 0
KCA1 281634Z 24014KT 26/11 A2965 RMK A01 T02590106  RH  038%=      5-min Rain = 0
KCA1 281635Z 24011KT 26/10 A2965 RMK A01 T02590103  RH  037%=      5-min Rain = 0
KCA1 281636Z 25012KT 26/11 A2965 RMK A01 T02590110  RH  039%=      5-min Rain = 0
KCA1 281637Z 24013KT 26/11 A2965 RMK A01 T02600105  RH  038%=      5-min Rain = 0
KCA1 281638Z 23014KT 26/11 A2965 RMK A01 T02600106  RH  038%=      5-min Rain = 0
KCA1 281639Z 23012KT 26/11 A2965 RMK A01 T02600105  RH  038%=      5-min Rain = 0
KCA1 281640Z 24014KT 26/11 A2965 RMK A01 T02600106  RH  038%=      5-min Rain = 0
KCA1 281641Z 23014KT 26/10 A2965 RMK A01 T02590096  RH  036%=      5-min Rain = 0
KCA1 281642Z 23012KT 26/10 A2965 RMK A01 T02590097  RH  036%=      5-min Rain = 0
KCA1 281643Z 22013KT 26/09 A2965 RMK A01 T02590092  RH  035%=      5-min Rain = 0
KCA1 281644Z 24012KT 26/09 A2965 RMK A01 T02580092  RH  035%=      5-min Rain = 0
KCA1 281645Z 24012KT 26/10 A2965 RMK A01 T02580104  RH  038%=      5-min Rain = 0
KCA1 281646Z 22012KT 26/10 A2965 RMK A01 T02590104  RH  038%=      5-min Rain = 0
KCA1 281647Z 23010KT 26/09 A2965 RMK A01 T02600093  RH  035%=      5-min Rain = 0
KCA1 281648Z 23011KT 26/10 A2965 RMK A01 T02590104  RH  038%=      5-min Rain = 0
KCA1 281649Z 24012KT 26/10 A2965 RMK A01 T02600100  RH  037%=      5-min Rain = 0
KCA1 281650Z 25009KT 26/11 A2965 RMK A01 T02610110  RH  039%=      5-min Rain = 0
KCA1 281651Z 25010KT 26/11 A2965 RMK A01 T02630105  RH  037%=      5-min Rain = 0
KCA1 281652Z 25011KT 26/10 A2965 RMK A01 T02630101  RH  036%=      5-min Rain = 0
KCA1 281653Z 25013KT 26/10 A2965 RMK A01 T02630098  RH  035%=      5-min Rain = 0
KCA1 281654Z 25011KT 26/10 A2965 RMK A01 T02620095  RH  035%=      5-min Rain = 0
KCA1 281655Z 25012KT 26/10 A2965 RMK A01 T02620096  RH  035%=      5-min Rain = 0
KCA1 281656Z 24014KT 26/09 A2965 RMK A01 T02630090  RH  034%=      5-min Rain = 0
KCA1 281657Z 25013KT 26/09 A2965 RMK A01 T02620087  RH  033%=      5-min Rain = 0
KCA1 281658Z 23010KT 26/10 A2965 RMK A01 T02620097  RH  035%=      5-min Rain = 0
KCA1 281659Z 23014KT 26/10 A2965 RMK A01 T02640095  RH  035%=      5-min Rain = 0
KCA1 281700Z 24013KT 26/09 A2965 RMK A01 T02640092  RH  034%=      5-min Rain = 0
KCA1 281701Z 24014KT 26/09 A2965 RMK A01 T02640085  RH  032%=      5-min Rain = 0
KCA1 281702Z 24012KT 26/10 A2965 RMK A01 T02630099  RH  036%=      5-min Rain = 0
KCA1 281703Z 24013KT 26/10 A2965 RMK A01 T02630095  RH  035%=      5-min Rain = 0
KCA1 281704Z 25013KT 26/09 A2965 RMK A01 T02640093  RH  034%=      5-min Rain = 0
KCA1 281705Z 25010KT 26/10 A2965 RMK A01 T02630095  RH  035%=      5-min Rain = 0
KCA1 281706Z 26011KT 26/09 A2965 RMK A01 T02640092  RH  034%=      5-min Rain = 0
KCA1 281707Z 24013KT 26/09 A2965 RMK A01 T02640093  RH  034%=      5-min Rain = 0
KCA1 281708Z 25016KT 26/09 A2965 RMK A01 T02640088  RH  033%=      5-min Rain = 0
KCA1 281709Z 24014KT 26/08 A2965 RMK A01 T02640081  RH  031%=      5-min Rain = 0
KCA1 281710Z 23016KT 27/08 A2965 RMK A01 T02650082  RH  031%=      5-min Rain = 0
KCA1 281711Z 24013KT 26/08 A2965 RMK A01 T02640082  RH  031%=      5-min Rain = 0
KCA1 281712Z 25009KT 27/10 A2965 RMK A01 T02650102  RH  036%=      5-min Rain = 0
KCA1 281713Z 25012KT 27/10 A2965 RMK A01 T02680103  RH  036%=      5-min Rain = 0
KCA1 281714Z 25014KT 27/10 A2965 RMK A01 T02690098  RH  034%=      5-min Rain = 0
KCA1 281715Z 25016KT 27/09 A2965 RMK A01 T02690093  RH  033%=      5-min Rain = 0
KCA1 281716Z 25011KT 27/10 A2965 RMK A01 T02680098  RH  034%=      5-min Rain = 0
KCA1 281717Z 25012KT 27/10 A2965 RMK A01 T02680096  RH  034%=      5-min Rain = 0
KCA1 281718Z 25014KT 27/10 A2965 RMK A01 T02680096  RH  034%=      5-min Rain = 0
KCA1 281719Z 26013KT 27/09 A2965 RMK A01 T02680089  RH  032%=      5-min Rain = 0
KCA1 281720Z 26011KT 27/09 A2965 RMK A01 T02670093  RH  033%=      5-min Rain = 0
KCA1 281721Z 25011KT 27/10 A2965 RMK A01 T02660097  RH  034%=      5-min Rain = 0
KCA1 281722Z 25012KT 27/09 A2965 RMK A01 T02670092  RH  033%=      5-min Rain = 0
KCA1 281723Z 26012KT 27/09 A2965 RMK A01 T02670092  RH  033%=      5-min Rain = 0
KCA1 281724Z 27010KT 27/10 A2965 RMK A01 T02670098  RH  035%=      5-min Rain = 0
KCA1 281725Z 26010KT 27/09 A2965 RMK A01 T02670093  RH  033%=      5-min Rain = 0
KCA1 281726Z 26010KT 27/09 A2965 RMK A01 T02670094  RH  034%=      5-min Rain = 0
KCA1 281727Z 26007KT 27/10 A2965 RMK A01 T02670099  RH  035%=      5-min Rain = 0
KCA1 281728Z 26011KT 27/11 A2965 RMK A01 T02680108  RH  037%=      5-min Rain = 0
KCA1 281729Z 24015KT 27/09 A2965 RMK A01 T02700094  RH  033%=      5-min Rain = 0
KCA1 281730Z 23016KT 27/09 A2965 RMK A01 T02700093  RH  033%=      5-min Rain = 0
KCA1 281731Z 25012KT 27/10 A2965 RMK A01 T02700097  RH  034%=      5-min Rain = 0
KCA1 281732Z 25009KT 27/10 A2965 RMK A01 T02700102  RH  035%=      5-min Rain = 0
KCA1 281733Z 24011KT 27/10 A2965 RMK A01 T02710098  RH  034%=      5-min Rain = 0
KCA1 281734Z 26011KT 27/10 A2965 RMK A01 T02720095  RH  033%=      5-min Rain = 0
KCA1 281735Z 27011KT 27/09 A2965 RMK A01 T02720086  RH  031%=      5-min Rain = 0
KCA1 281736Z 25011KT 27/10 A2965 RMK A01 T02710100  RH  034%=      5-min Rain = 0
KCA1 281737Z 24013KT 27/09 A2965 RMK A01 T02720092  RH  032%=      5-min Rain = 0
KCA1 281738Z 23011KT 27/09 A2965 RMK A01 T02720090  RH  032%=      5-min Rain = 0
KCA1 281739Z 22012KT 27/09 A2965 RMK A01 T02710089  RH  032%=      5-min Rain = 0
KCA1 281740Z 23010KT 27/09 A2965 RMK A01 T02710094  RH  033%=      5-min Rain = 0
KCA1 281741Z 25009KT 27/11 A2965 RMK A01 T02710105  RH  035%=      5-min Rain = 0
KCA1 281742Z 25009KT 27/09 A2965 RMK A01 T02720091  RH  032%=      5-min Rain = 0
KCA1 281743Z 23010G16KT 27/09 A2965 RMK A01 T02720093  RH  032%=      5-min Rain = 0
KCA1 281744Z 22013KT 27/08 A2965 RMK A01 T02720084  RH  031%=      5-min Rain = 0
KCA1 281745Z 23015G21KT 27/08 A2965 RMK A01 T02720081  RH  030%=      5-min Rain = 0
KCA1 281746Z 23012KT 27/09 A2965 RMK A01 T02730087  RH  031%=      5-min Rain = 0
KCA1 281747Z 22015KT 27/08 A2965 RMK A01 T02730081  RH  030%=      5-min Rain = 0
KCA1 281748Z 23014KT 27/08 A2965 RMK A01 T02730078  RH  029%=      5-min Rain = 0
KCA1 281749Z 25011KT 27/08 A2965 RMK A01 T02720080  RH  030%=      5-min Rain = 0
KCA1 281750Z 25010KT 27/09 A2965 RMK A01 T02710094  RH  033%=      5-min Rain = 0
KCA1 281751Z 26011KT 27/09 A2965 RMK A01 T02720093  RH  032%=      5-min Rain = 0
KCA1 281752Z 26012G17KT 27/10 A2965 RMK A01 T02730099  RH  034%=      5-min Rain = 0
KCA1 281753Z 25015KT 27/09 A2965 RMK A01 T02740085  RH  030%=      5-min Rain = 0
KCA1 281754Z 24012KT 27/09 A2965 RMK A01 T02740087  RH  031%=      5-min Rain = 0
KCA1 281755Z 25013G18KT 27/10 A2965 RMK A01 T02740095  RH  033%=      5-min Rain = 0
KCA1 281756Z 25015KT 28/09 A2965 RMK A01 T02750088  RH  031%=      5-min Rain = 0
KCA1 281757Z 24015G20KT 27/09 A2965 RMK A01 T02740087  RH  031%=      5-min Rain = 0
KCA1 281758Z 24012KT 27/08 A2965 RMK A01 T02730083  RH  030%=      5-min Rain = 0
KCA1 281759Z 24010KT 27/09 A2965 RMK A01 T02730092  RH  032%=      5-min Rain = 0
KCA1 281800Z 24009KT 27/10 A2965 RMK A01 T02740100  RH  033%=      5-min Rain = 0
KCA1 281801Z 24011KT 28/09 A2965 RMK A01 T02750085  RH  030%=      5-min Rain = 0
KCA1 281802Z 23010KT 27/08 A2965 RMK A01 T02740078  RH  029%=      5-min Rain = 0
KCA1 281803Z 26012KT 27/09 A2965 RMK A01 T02730091  RH  032%=      5-min Rain = 0
KCA1 281804Z 26012KT 28/10 A2965 RMK A01 T02750096  RH  033%=      5-min Rain = 0
KCA1 281805Z 25013KT 28/09 A2965 RMK A01 T02770092  RH  031%=      5-min Rain = 0
KCA1 281806Z 25013KT 28/09 A2965 RMK A01 T02770090  RH  031%=      5-min Rain = 0
KCA1 281807Z 25012KT 28/09 A2965 RMK A01 T02780085  RH  030%=      5-min Rain = 0
KCA1 281808Z 26012KT 28/08 A2965 RMK A01 T02780082  RH  029%=      5-min Rain = 0
KCA1 281809Z 25012KT 28/08 A2965 RMK A01 T02770082  RH  029%=      5-min Rain = 0
KCA1 281810Z 26011KT 28/08 A2965 RMK A01 T02770081  RH  029%=      5-min Rain = 0
KCA1 281811Z 25014KT 28/09 A2965 RMK A01 T02770085  RH  030%=      5-min Rain = 0
KCA1 281812Z 24012KT 28/09 A2965 RMK A01 T02770086  RH  030%=      5-min Rain = 0
KCA1 281813Z 26012KT 28/08 A2965 RMK A01 T02780083  RH  029%=      5-min Rain = 0
KCA1 281814Z 25012KT 28/08 A2964 RMK A01 T02780082  RH  029%=      5-min Rain = 0
KCA1 281815Z 25013KT 28/08 A2964 RMK A01 T02780084  RH  029%=      5-min Rain = 0
KCA1 281816Z 25013KT 28/08 A2964 RMK A01 T02780075  RH  028%=      5-min Rain = 0
KCA1 281817Z 26010KT 28/08 A2964 RMK A01 T02780083  RH  029%=      5-min Rain = 0
KCA1 281818Z 26012KT 28/09 A2964 RMK A01 T02780092  RH  031%=      5-min Rain = 0
KCA1 281819Z 25013KT 28/08 A2964 RMK A01 T02790080  RH  028%=      5-min Rain = 0
KCA1 281820Z 24012KT 28/09 A2964 RMK A01 T02790086  RH  030%=      5-min Rain = 0
KCA1 281821Z 23015KT 28/08 A2964 RMK A01 T02790076  RH  028%=      5-min Rain = 0
KCA1 281822Z 24016KT 28/08 A2964 RMK A01 T02790077  RH  028%=      5-min Rain = 0
KCA1 281823Z 24013KT 28/08 A2965 RMK A01 T02780078  RH  028%=      5-min Rain = 0
KCA1 281824Z 24011KT 28/08 A2965 RMK A01 T02780076  RH  028%=      5-min Rain = 0
KCA1 281825Z 24009KT 28/08 A2965 RMK A01 T02770079  RH  029%=      5-min Rain = 0
KCA1 281826Z 25010KT 28/09 A2965 RMK A01 T02780086  RH  030%=      5-min Rain = 0
KCA1 281827Z 25013KT 28/09 A2965 RMK A01 T02800086  RH  030%=      5-min Rain = 0
KCA1 281828Z 24011G17KT 28/08 A2964 RMK A01 T02810084  RH  029%=      5-min Rain = 0
KCA1 281829Z 24014KT 28/09 A2964 RMK A01 T02810086  RH  029%=      5-min Rain = 0
KCA1 281830Z 27012KT 28/09 A2964 RMK A01 T02820093  RH  031%=      5-min Rain = 0
KCA1 281831Z 25015KT 28/09 A2964 RMK A01 T02820085  RH  029%=      5-min Rain = 0
KCA1 281832Z 25014KT 28/09 A2964 RMK A01 T02820085  RH  029%=      5-min Rain = 0
KCA1 281833Z 25012KT 28/08 A2964 RMK A01 T02820083  RH  029%=      5-min Rain = 0
KCA1 281834Z 25012KT 28/07 A2964 RMK A01 T02820074  RH  027%=      5-min Rain = 0
KCA1 281835Z 24010KT 28/08 A2964 RMK A01 T02810076  RH  027%=      5-min Rain = 0
KCA1 281836Z 23011KT 28/08 A2964 RMK A01 T02800083  RH  029%=      5-min Rain = 0
KCA1 281837Z 23012KT 28/08 A2964 RMK A01 T02810078  RH  028%=      5-min Rain = 0
KCA1 281838Z 23012KT 28/08 A2964 RMK A01 T02810082  RH  029%=      5-min Rain = 0
KCA1 281839Z 25016G21KT 28/09 A2964 RMK A01 T02820087  RH  029%=      5-min Rain = 0
KCA1 281840Z 24016KT 28/06 A2964 RMK A01 T02830058  RH  024%=      5-min Rain = 0
KCA1 281841Z 23015KT 28/05 A2964 RMK A01 T02830054  RH  023%=      5-min Rain = 0
KCA1 281842Z 24016KT 28/06 A2964 RMK A01 T02810057  RH  024%=      5-min Rain = 0
KCA1 281843Z 25019G24KT 28/04 A2964 RMK A01 T02810040  RH  021%=      5-min Rain = 0
KCA1 281844Z 25018KT 28/05 A2964 RMK A01 T02800046  RH  022%=      5-min Rain = 0
KCA1 281845Z 24019KT 28/04 A2964 RMK A01 T02800040  RH  022%=      5-min Rain = 0
KCA1 281846Z 25015KT 28/05 A2964 RMK A01 T02800046  RH  022%=      5-min Rain = 0
KCA1 281847Z 24017KT 28/05 A2964 RMK A01 T02800053  RH  023%=      5-min Rain = 0
KCA1 281848Z 24014KT 28/05 A2964 RMK A01 T02810050  RH  023%=      5-min Rain = 0
KCA1 281849Z 24017G22KT 28/06 A2964 RMK A01 T02820057  RH  024%=      5-min Rain = 0
KCA1 281850Z 24018KT 28/05 A2964 RMK A01 T02820046  RH  022%=      5-min Rain = 0
KCA1 281851Z 24017KT 28/04 A2964 RMK A01 T02820039  RH  021%=      5-min Rain = 0
KCA1 281852Z 23016KT 28/05 A2964 RMK A01 T02810048  RH  023%=      5-min Rain = 0
KCA1 281853Z 23018KT 28/05 A2964 RMK A01 T02810047  RH  022%=      5-min Rain = 0
KCA1 281854Z 24017KT 28/04 A2964 RMK A01 T02810035  RH  021%=      5-min Rain = 0
KCA1 281855Z 23013KT 28/05 A2964 RMK A01 T02800050  RH  023%=      5-min Rain = 0
KCA1 281856Z 24019KT 28/04 A2964 RMK A01 T02800044  RH  022%=      5-min Rain = 0
KCA1 281857Z 22018KT 28/04 A2964 RMK A01 T02800038  RH  021%=      5-min Rain = 0
KCA1 281858Z 23017KT 28/05 A2964 RMK A01 T02800046  RH  022%=      5-min Rain = 0
KCA1 281859Z 24018KT 28/04 A2964 RMK A01 T02800043  RH  022%=      5-min Rain = 0
KCA1 281900Z 23016KT 28/05 A2964 RMK A01 T02800051  RH  023%=      5-min Rain = 0
KCA1 281901Z 24017KT 28/05 A2964 RMK A01 T02810047  RH  022%=      5-min Rain = 0
KCA1 281902Z 24018G23KT 28/05 A2964 RMK A01 T02810049  RH  023%=      5-min Rain = 0
KCA1 281903Z 24019KT 28/05 A2964 RMK A01 T02810053  RH  023%=      5-min Rain = 0
KCA1 281904Z 24018KT 28/04 A2964 RMK A01 T02810043  RH  022%=      5-min Rain = 0
KCA1 281905Z 24015KT 28/04 A2964 RMK A01 T02800039  RH  021%=      5-min Rain = 0
KCA1 281906Z 24017KT 28/05 A2964 RMK A01 T02790047  RH  023%=      5-min Rain = 0
KCA1 281907Z 24015KT 28/05 A2964 RMK A01 T02800051  RH  023%=      5-min Rain = 0
KCA1 281908Z 24015KT 28/06 A2964 RMK A01 T02800058  RH  024%=      5-min Rain = 0
KCA1 281909Z 22016KT 28/06 A2964 RMK A01 T02810058  RH  024%=      5-min Rain = 0
KCA1 281910Z 22017KT 28/05 A2964 RMK A01 T02820048  RH  023%=      5-min Rain = 0
KCA1 281911Z 22017KT 28/05 A2964 RMK A01 T02820053  RH  023%=      5-min Rain = 0
KCA1 281912Z 22017KT 28/05 A2964 RMK A01 T02830050  RH  023%=      5-min Rain = 0
KCA1 281913Z 22015G20KT 28/06 A2964 RMK A01 T02830057  RH  024%=      5-min Rain = 0
KCA1 281914Z 23014KT 28/07 A2964 RMK A01 T02830068  RH  026%=      5-min Rain = 0
KCA1 281915Z 23014G20KT 29/07 A2964 RMK A01 T02850065  RH  025%=      5-min Rain = 0
KCA1 281916Z 22017KT 29/07 A2964 RMK A01 T02860070  RH  026%=      5-min Rain = 0
KCA1 281917Z 24017KT 29/06 A2964 RMK A01 T02860063  RH  024%=      5-min Rain = 0
KCA1 281918Z 24017KT 29/06 A2964 RMK A01 T02850062  RH  024%=      5-min Rain = 0
KCA1 281919Z 23017G23KT 28/06 A2964 RMK A01 T02840059  RH  024%=      5-min Rain = 0
KCA1 281920Z 22019G24KT 28/06 A2964 RMK A01 T02830055  RH  023%=      5-min Rain = 0
KCA1 281921Z 23020KT 28/05 A2964 RMK A01 T02830052  RH  023%=      5-min Rain = 0
KCA1 281922Z 23021KT 28/05 A2964 RMK A01 T02840050  RH  023%=      5-min Rain = 0
KCA1 281923Z 24020KT 28/03 A2964 RMK A01 T02810033  RH  020%=      5-min Rain = 0
KCA1 281924Z 24021KT 28/05 A2964 RMK A01 T02790047  RH  023%=      5-min Rain = 0
KCA1 281925Z 23018KT 28/05 A2964 RMK A01 T02790046  RH  023%=      5-min Rain = 0
KCA1 281926Z 24017G23KT 28/05 A2964 RMK A01 T02790052  RH  024%=      5-min Rain = 0
KCA1 281927Z 24019G26KT 28/06 A2964 RMK A01 T02790062  RH  025%=      5-min Rain = 0
KCA1 281928Z 24018KT 28/06 A2964 RMK A01 T02810062  RH  025%=      5-min Rain = 0
KCA1 281929Z 24019G24KT 28/05 A2964 RMK A01 T02810054  RH  024%=      5-min Rain = 0
KCA1 281930Z 24012KT 28/07 A2964 RMK A01 T02800069  RH  026%=      5-min Rain = 0
KCA1 281931Z 25017G22KT 28/07 A2964 RMK A01 T02820070  RH  026%=      5-min Rain = 0
KCA1 281932Z 24017G22KT 28/06 A2964 RMK A01 T02830055  RH  024%=      5-min Rain = 0
KCA1 281933Z 25014KT 28/06 A2964 RMK A01 T02820058  RH  024%=      5-min Rain = 0
KCA1 281934Z 23014KT 28/06 A2964 RMK A01 T02820064  RH  025%=      5-min Rain = 0
KCA1 281935Z 23016G21KT 28/06 A2964 RMK A01 T02820061  RH  025%=      5-min Rain = 0
KCA1 281936Z 24020KT 28/06 A2964 RMK A01 T02820055  RH  024%=      5-min Rain = 0
KCA1 281937Z 23018KT 28/05 A2964 RMK A01 T02810052  RH  023%=      5-min Rain = 0
KCA1 281938Z 23018KT 28/06 A2964 RMK A01 T02800060  RH  025%=      5-min Rain = 0
KCA1 281939Z 23016G22KT 28/06 A2964 RMK A01 T02800063  RH  025%=      5-min Rain = 0
KCA1 281940Z 23016KT 28/07 A2964 RMK A01 T02820069  RH  026%=      5-min Rain = 0
KCA1 281941Z 23016KT 28/06 A2964 RMK A01 T02830061  RH  025%=      5-min Rain = 0
KCA1 281942Z 23015KT 28/07 A2964 RMK A01 T02830073  RH  027%=      5-min Rain = 0
KCA1 281943Z 24017KT 28/07 A2964 RMK A01 T02840069  RH  026%=      5-min Rain = 0
KCA1 281944Z 23016KT 28/06 A2964 RMK A01 T02840064  RH  025%=      5-min Rain = 0
KCA1 281945Z 24014G20KT 28/06 A2964 RMK A01 T02820064  RH  025%=      5-min Rain = 0
KCA1 281946Z 23016KT 28/06 A2964 RMK A01 T02810058  RH  024%=      5-min Rain = 0
KCA1 281947Z 23014KT 28/06 A2964 RMK A01 T02800055  RH  024%=      5-min Rain = 0
KCA1 281948Z 23016G21KT 28/07 A2964 RMK A01 T02800066  RH  026%=      5-min Rain = 0
KCA1 281949Z 23016G21KT 28/06 A2964 RMK A01 T02810060  RH  025%=      5-min Rain = 0
KCA1 281950Z 21014KT 28/06 A2963 RMK A01 T02820061  RH  025%=      5-min Rain = 0
KCA1 281951Z 21015KT 28/06 A2963 RMK A01 T02830061  RH  025%=      5-min Rain = 0
KCA1 281952Z 22016G21KT 28/06 A2963 RMK A01 T02840059  RH  024%=      5-min Rain = 0
KCA1 281953Z 24013KT 28/08 A2964 RMK A01 T02840077  RH  027%=      5-min Rain = 0
KCA1 281954Z 25017G23KT 29/07 A2963 RMK A01 T02850068  RH  025%=      5-min Rain = 0
KCA1 281955Z 24017G22KT 29/05 A2963 RMK A01 T02850052  RH  023%=      5-min Rain = 0
KCA1 281956Z 23013KT 28/06 A2963 RMK A01 T02840061  RH  024%=      5-min Rain = 0
KCA1 281957Z 22016KT 28/07 A2963 RMK A01 T02840068  RH  026%=      5-min Rain = 0
KCA1 281958Z 22017G22KT 29/06 A2963 RMK A01 T02860055  RH  023%=      5-min Rain = 0
KCA1 281959Z 24016KT 29/05 A2963 RMK A01 T02860050  RH  022%=      5-min Rain = 0
KCA1 282000Z 23014KT 29/06 A2964 RMK A01 T02850063  RH  024%=      5-min Rain = 0
KCA1 282001Z 24013KT 29/07 A2964 RMK A01 T02860065  RH  025%=      5-min Rain = 0
KCA1 282002Z 24011KT 29/07 A2964 RMK A01 T02860071  RH  026%=      5-min Rain = 0
KCA1 282003Z 25013G18KT 29/06 A2963 RMK A01 T02870059  RH  024%=      5-min Rain = 0
KCA1 282004Z 23011KT 29/08 A2964 RMK A01 T02870075  RH  026%=      5-min Rain = 0
KCA1 282005Z 23014KT 29/07 A2963 RMK A01 T02880070  RH  025%=      5-min Rain = 0
KCA1 282006Z 22012KT 29/06 A2963 RMK A01 T02880055  RH  023%=      5-min Rain = 0
KCA1 282007Z 23015KT 29/06 A2963 RMK A01 T02870060  RH  024%=      5-min Rain = 0
KCA1 282008Z 23012KT 29/06 A2963 RMK A01 T02870058  RH  023%=      5-min Rain = 0
KCA1 282009Z 23018KT 29/05 A2963 RMK A01 T02870054  RH  023%=      5-min Rain = 0
KCA1 282010Z 24015G21KT 29/05 A2963 RMK A01 T02850049  RH  022%=      5-min Rain = 0
KCA1 282011Z 25017G22KT 29/05 A2963 RMK A01 T02850046  RH  022%=      5-min Rain = 0
KCA1 282012Z 24016KT 28/05 A2963 RMK A01 T02840048  RH  022%=      5-min Rain = 0
KCA1 282013Z 23015KT 28/05 A2963 RMK A01 T02840046  RH  022%=      5-min Rain = 0
KCA1 282014Z 23012KT 28/05 A2963 RMK A01 T02840046  RH  022%=      5-min Rain = 0
KCA1 282015Z 24019KT 28/05 A2963 RMK A01 T02840052  RH  023%=      5-min Rain = 0
KCA1 282016Z 24018KT 28/05 A2963 RMK A01 T02840050  RH  022%=      5-min Rain = 0
KCA1 282017Z 23016KT 28/05 A2963 RMK A01 T02840050  RH  023%=      5-min Rain = 0
KCA1 282018Z 22017KT 29/05 A2963 RMK A01 T02850048  RH  022%=      5-min Rain = 0
KCA1 282019Z 22016KT 29/05 A2963 RMK A01 T02850048  RH  022%=      5-min Rain = 0
KCA1 282020Z 23012KT 29/05 A2963 RMK A01 T02850054  RH  023%=      5-min Rain = 0
KCA1 282021Z 22016KT 29/06 A2963 RMK A01 T02860058  RH  024%=      5-min Rain = 0
KCA1 282022Z 22018G23KT 29/05 A2963 RMK A01 T02870050  RH  022%=      5-min Rain = 0
KCA1 282023Z 22015KT 29/04 A2963 RMK A01 T02860040  RH  021%=      5-min Rain = 0
KCA1 282024Z 24017KT 29/05 A2963 RMK A01 T02850052  RH  023%=      5-min Rain = 0
KCA1 282025Z 24018KT 29/06 A2963 RMK A01 T02850055  RH  023%=      5-min Rain = 0
KCA1 282026Z 25018KT 29/05 A2963 RMK A01 T02850052  RH  023%=      5-min Rain = 0
KCA1 282027Z 25018KT 29/05 A2963 RMK A01 T02850047  RH  022%=      5-min Rain = 0
KCA1 282028Z 25015KT 29/06 A2963 RMK A01 T02850056  RH  023%=      5-min Rain = 0
KCA1 282029Z 25017KT 29/05 A2963 RMK A01 T02850052  RH  023%=      5-min Rain = 0
KCA1 282030Z 23017KT 29/05 A2963 RMK A01 T02860047  RH  022%=      5-min Rain = 0
KCA1 282031Z 23018KT 29/06 A2963 RMK A01 T02850058  RH  024%=      5-min Rain = 0
KCA1 282032Z 23020KT 29/04 A2963 RMK A01 T02850043  RH  021%=      5-min Rain = 0
KCA1 282033Z 22017KT 29/04 A2963 RMK A01 T02850036  RH  020%=      5-min Rain = 0
KCA1 282034Z 23015KT 29/04 A2963 RMK A01 T02850043  RH  021%=      5-min Rain = 0
KCA1 282035Z 23014KT 29/06 A2963 RMK A01 T02850057  RH  023%=      5-min Rain = 0
KCA1 282036Z 22017G22KT 29/05 A2963 RMK A01 T02870051  RH  022%=      5-min Rain = 0
KCA1 282037Z 21019G25KT 29/04 A2962 RMK A01 T02870038  RH  020%=      5-min Rain = 0
KCA1 282038Z 22015G23KT 29/04 A2963 RMK A01 T02870041  RH  021%=      5-min Rain = 0
KCA1 282039Z 22017G22KT 29/04 A2963 RMK A01 T02870039  RH  020%=      5-min Rain = 0
KCA1 282040Z 22019KT 29/04 A2962 RMK A01 T02870039  RH  021%=      5-min Rain = 0
KCA1 282041Z 21018KT 29/04 A2962 RMK A01 T02860036  RH  020%=      5-min Rain = 0
KCA1 282042Z 21015KT 29/04 A2963 RMK A01 T02860044  RH  021%=      5-min Rain = 0
KCA1 282043Z 20018G24KT 29/04 A2962 RMK A01 T02860044  RH  021%=      5-min Rain = 0
KCA1 282044Z 22017KT 29/05 A2963 RMK A01 T02870051  RH  022%=      5-min Rain = 0
KCA1 282045Z 22017KT 29/04 A2963 RMK A01 T02870041  RH  021%=      5-min Rain = 0
KCA1 282046Z 22017KT 29/04 A2963 RMK A01 T02870042  RH  021%=      5-min Rain = 0
KCA1 282047Z 22016KT 29/04 A2963 RMK A01 T02860041  RH  021%=      5-min Rain = 0
KCA1 282048Z 22020KT 29/04 A2962 RMK A01 T02860040  RH  021%=      5-min Rain = 0
KCA1 282049Z 21020KT 29/04 A2962 RMK A01 T02860037  RH  020%=      5-min Rain = 0
KCA1 282050Z 22021G26KT 29/03 A2962 RMK A01 T02850034  RH  020%=      5-min Rain = 0
KCA1 282051Z 23019KT 29/04 A2962 RMK A01 T02850042  RH  021%=      5-min Rain = 0
KCA1 282052Z 22017KT 29/04 A2962 RMK A01 T02850041  RH  021%=      5-min Rain = 0
KCA1 282053Z 21019KT 29/04 A2962 RMK A01 T02850043  RH  021%=      5-min Rain = 0
KCA1 282054Z 22015KT 29/05 A2963 RMK A01 T02860047  RH  022%=      5-min Rain = 0
KCA1 282055Z 22014KT 29/05 A2962 RMK A01 T02860046  RH  022%=      5-min Rain = 0
KCA1 282056Z 22013KT 29/04 A2962 RMK A01 T02860036  RH  020%=      5-min Rain = 0
KCA1 282057Z 22015KT 29/05 A2962 RMK A01 T02860047  RH  022%=      5-min Rain = 0
KCA1 282058Z 22017KT 29/05 A2962 RMK A01 T02860051  RH  022%=      5-min Rain = 0
KCA1 282059Z 23019KT 29/04 A2962 RMK A01 T02860039  RH  021%=      5-min Rain = 0
KCA1 282100Z 23016KT 29/03 A2962 RMK A01 T02860034  RH  020%=      5-min Rain = 0
KCA1 282101Z 22013KT 28/04 A2962 RMK A01 T02840042  RH  021%=      5-min Rain = 0
KCA1 282102Z 22013KT 28/04 A2962 RMK A01 T02840043  RH  021%=      5-min Rain = 0
KCA1 282103Z 22011KT 29/05 A2962 RMK A01 T02850050  RH  022%=      5-min Rain = 0
KCA1 282104Z 24013KT 29/06 A2962 RMK A01 T02860062  RH  024%=      5-min Rain = 0
KCA1 282105Z 23013KT 29/05 A2962 RMK A01 T02870048  RH  022%=      5-min Rain = 0
KCA1 282106Z 21013KT 29/06 A2962 RMK A01 T02870058  RH  023%=      5-min Rain = 0
KCA1 282107Z 21014G19KT 29/05 A2962 RMK A01 T02880052  RH  022%=      5-min Rain = 0
KCA1 282108Z 21015KT 29/05 A2962 RMK A01 T02880051  RH  022%=      5-min Rain = 0
KCA1 282109Z 22018KT 29/04 A2962 RMK A01 T02880042  RH  021%=      5-min Rain = 0
KCA1 282110Z 21018KT 29/04 A2962 RMK A01 T02870040  RH  021%=      5-min Rain = 0
KCA1 282111Z 21019KT 29/04 A2962 RMK A01 T02860038  RH  020%=      5-min Rain = 0
KCA1 282112Z 21013KT 29/05 A2962 RMK A01 T02860046  RH  022%=      5-min Rain = 0
KCA1 282113Z 24011KT 29/07 A2962 RMK A01 T02860065  RH  025%=      5-min Rain = 0
KCA1 282114Z 24015G20KT 29/06 A2962 RMK A01 T02880055  RH  023%=      5-min Rain = 0
KCA1 282115Z 22018KT 29/06 A2962 RMK A01 T02880057  RH  023%=      5-min Rain = 0
KCA1 282116Z 23016KT 29/05 A2962 RMK A01 T02880045  RH  021%=      5-min Rain = 0
KCA1 282117Z 22014G20KT 29/05 A2962 RMK A01 T02880048  RH  022%=      5-min Rain = 0
KCA1 282118Z 22017KT 29/05 A2962 RMK A01 T02870050  RH  022%=      5-min Rain = 0
KCA1 282119Z 22013KT 29/04 A2962 RMK A01 T02870043  RH  021%=      5-min Rain = 0
KCA1 282120Z 21016KT 29/06 A2962 RMK A01 T02870060  RH  024%=      5-min Rain = 0
KCA1 282121Z 22017KT 29/05 A2962 RMK A01 T02880051  RH  022%=      5-min Rain = 0
KCA1 282122Z 21016KT 29/04 A2962 RMK A01 T02880043  RH  021%=      5-min Rain = 0
KCA1 282123Z 21015KT 29/04 A2962 RMK A01 T02880041  RH  021%=      5-min Rain = 0
KCA1 282124Z 22019KT 29/05 A2962 RMK A01 T02870046  RH  022%=      5-min Rain = 0
KCA1 282125Z 22017KT 29/04 A2962 RMK A01 T02870037  RH  020%=      5-min Rain = 0
KCA1 282126Z 22014KT 29/05 A2962 RMK A01 T02860048  RH  022%=      5-min Rain = 0
KCA1 282127Z 22016KT 29/05 A2962 RMK A01 T02860045  RH  022%=      5-min Rain = 0
KCA1 282128Z 21016KT 29/04 A2962 RMK A01 T02860037  RH  020%=      5-min Rain = 0
KCA1 282129Z 22016KT 29/04 A2962 RMK A01 T02860044  RH  021%=      5-min Rain = 0
KCA1 282130Z 22016KT 29/04 A2962 RMK A01 T02860043  RH  021%=      5-min Rain = 0
KCA1 282131Z 21017G23KT 29/05 A2962 RMK A01 T02860054  RH  023%=      5-min Rain = 0
KCA1 282132Z 22017KT 29/04 A2962 RMK A01 T02870041  RH  021%=      5-min Rain = 0
KCA1 282133Z 23017KT 29/05 A2962 RMK A01 T02870050  RH  022%=      5-min Rain = 0
KCA1 282134Z 23016KT 29/03 A2962 RMK A01 T02870034  RH  020%=      5-min Rain = 0
KCA1 282135Z 22014KT 29/04 A2962 RMK A01 T02860043  RH  021%=      5-min Rain = 0
KCA1 282136Z 22017G25KT 29/06 A2962 RMK A01 T02870058  RH  024%=      5-min Rain = 0
KCA1 282137Z 22023KT 29/04 A2962 RMK A01 T02880040  RH  021%=      5-min Rain = 0
KCA1 282138Z 22020KT 29/04 A2962 RMK A01 T02870037  RH  020%=      5-min Rain = 0
KCA1 282139Z 21018KT 29/04 A2962 RMK A01 T02860038  RH  021%=      5-min Rain = 0
KCA1 282140Z 21016G21KT 29/04 A2962 RMK A01 T02850036  RH  020%=      5-min Rain = 0
KCA1 282141Z 21017KT 28/04 A2962 RMK A01 T02840038  RH  021%=      5-min Rain = 0
KCA1 282142Z 21016KT 28/04 A2962 RMK A01 T02830039  RH  021%=      5-min Rain = 0
KCA1 282143Z 21018KT 28/04 A2962 RMK A01 T02820036  RH  021%=      5-min Rain = 0
KCA1 282144Z 20019KT 28/04 A2962 RMK A01 T02820038  RH  021%=      5-min Rain = 0
KCA1 282145Z 20016KT 28/04 A2962 RMK A01 T02820043  RH  022%=      5-min Rain = 0
KCA1 282146Z 21014KT 28/05 A2962 RMK A01 T02830048  RH  022%=      5-min Rain = 0
KCA1 282147Z 21019G26KT 28/06 A2962 RMK A01 T02840056  RH  024%=      5-min Rain = 0
KCA1 282148Z 21017G22KT 28/05 A2962 RMK A01 T02840045  RH  022%=      5-min Rain = 0
KCA1 282149Z 21014KT 29/06 A2962 RMK A01 T02850058  RH  024%=      5-min Rain = 0
KCA1 282150Z 21013G18KT 29/06 A2962 RMK A01 T02850064  RH  025%=      5-min Rain = 0
KCA1 282151Z 21016G22KT 29/06 A2962 RMK A01 T02860056  RH  023%=      5-min Rain = 0
KCA1 282152Z 21016KT 29/06 A2962 RMK A01 T02860058  RH  024%=      5-min Rain = 0
KCA1 282153Z 21014G19KT 29/06 A2962 RMK A01 T02860057  RH  023%=      5-min Rain = 0
KCA1 282154Z 20020KT 29/05 A2962 RMK A01 T02860049  RH  022%=      5-min Rain = 0
KCA1 282155Z 21020KT 29/05 A2962 RMK A01 T02860046  RH  022%=      5-min Rain = 0
KCA1 282156Z 22013KT 29/05 A2962 RMK A01 T02860054  RH  023%=      5-min Rain = 0
KCA1 282157Z 22014KT 29/07 A2962 RMK A01 T02860070  RH  026%=      5-min Rain = 0
KCA1 282158Z 22020KT 29/05 A2962 RMK A01 T02870053  RH  023%=      5-min Rain = 0
KCA1 282159Z 21020KT 29/04 A2962 RMK A01 T02880043  RH  021%=      5-min Rain = 0
KCA1 282200Z 22019KT 29/04 A2962 RMK A01 T02870039  RH  021%=      5-min Rain = 0
KCA1 282201Z 22017KT 29/04 A2962 RMK A01 T02860044  RH  021%=      5-min Rain = 0
KCA1 282202Z 21016G21KT 29/04 A2962 RMK A01 T02860039  RH  021%=      5-min Rain = 0
KCA1 282203Z 22016G21KT 29/04 A2962 RMK A01 T02860040  RH  021%=      5-min Rain = 0
KCA1 282204Z 21014KT 29/05 A2962 RMK A01 T02860053  RH  023%=      5-min Rain = 0
KCA1 282205Z 22015KT 29/06 A2962 RMK A01 T02870056  RH  023%=      5-min Rain = 0
KCA1 282206Z 23015KT 29/06 A2962 RMK A01 T02880061  RH  024%=      5-min Rain = 0
KCA1 282207Z 23016KT 29/05 A2962 RMK A01 T02880048  RH  022%=      5-min Rain = 0
KCA1 282208Z 23016G22KT 29/06 A2962 RMK A01 T02880061  RH  024%=      5-min Rain = 0
KCA1 282209Z 23018KT 29/04 A2962 RMK A01 T02870041  RH  021%=      5-min Rain = 0
KCA1 282210Z 22016KT 28/04 A2962 RMK A01 T02840038  RH  021%=      5-min Rain = 0
KCA1 282211Z 21016KT 28/04 A2961 RMK A01 T02820043  RH  022%=      5-min Rain = 0
KCA1 282212Z 21019KT 28/04 A2961 RMK A01 T02810040  RH  021%=      5-min Rain = 0
KCA1 282213Z 22020KT 28/04 A2961 RMK A01 T02810038  RH  021%=      5-min Rain = 0
KCA1 282214Z 22018KT 28/04 A2961 RMK A01 T02810036  RH  021%=      5-min Rain = 0
KCA1 282215Z 23016KT 28/04 A2961 RMK A01 T02820042  RH  021%=      5-min Rain = 0
KCA1 282216Z 22015KT 28/04 A2961 RMK A01 T02840044  RH  022%=      5-min Rain = 0
KCA1 282217Z 22017KT 28/04 A2961 RMK A01 T02840042  RH  021%=      5-min Rain = 0
KCA1 282218Z 22015KT 28/04 A2961 RMK A01 T02840037  RH  021%=      5-min Rain = 0
KCA1 282219Z 21015KT 28/05 A2961 RMK A01 T02840047  RH  022%=      5-min Rain = 0
KCA1 282220Z 22019G24KT 28/05 A2961 RMK A01 T02840048  RH  022%=      5-min Rain = 0
KCA1 282221Z 23020KT 28/04 A2961 RMK A01 T02830037  RH  021%=      5-min Rain = 0
KCA1 282222Z 22016KT 28/04 A2961 RMK A01 T02790040  RH  022%=      5-min Rain = 0
KCA1 282223Z 22017G22KT 28/05 A2961 RMK A01 T02770045  RH  023%=      5-min Rain = 0
KCA1 282224Z 22017KT 27/03 A2961 RMK A01 T02740031  RH  021%=      5-min Rain = 0
KCA1 282225Z 22017KT 27/03 A2961 RMK A01 T02740030  RH  021%=      5-min Rain = 0
KCA1 282226Z 23016KT 27/03 A2961 RMK A01 T02740033  RH  021%=      5-min Rain = 0
KCA1 282227Z 24016G23KT 28/04 A2961 RMK A01 T02750037  RH  022%=      5-min Rain = 0
KCA1 282228Z 23017KT 28/03 A2961 RMK A01 T02760031  RH  021%=      5-min Rain = 0
KCA1 282229Z 23015KT 28/04 A2961 RMK A01 T02760037  RH  022%=      5-min Rain = 0
KCA1 282230Z 23015G20KT 28/04 A2961 RMK A01 T02750036  RH  022%=      5-min Rain = 0
KCA1 282231Z 23016G23KT 28/04 A2961 RMK A01 T02750039  RH  022%=      5-min Rain = 0
KCA1 282232Z 23017G22KT 28/04 A2962 RMK A01 T02750037  RH  022%=      5-min Rain = 0
KCA1 282233Z 22015G20KT 28/04 A2962 RMK A01 T02750042  RH  023%=      5-min Rain = 0
KCA1 282234Z 22017KT 27/04 A2961 RMK A01 T02740038  RH  022%=      5-min Rain = 0
KCA1 282235Z 22017KT 27/04 A2961 RMK A01 T02740037  RH  022%=      5-min Rain = 0
KCA1 282236Z 22016G21KT 27/04 A2961 RMK A01 T02740036  RH  022%=      5-min Rain = 0
KCA1 282237Z 22019KT 27/04 A2962 RMK A01 T02730038  RH  022%=      5-min Rain = 0
KCA1 282238Z 22019KT 27/04 A2962 RMK A01 T02720035  RH  022%=      5-min Rain = 0
KCA1 282239Z 23019KT 27/03 A2962 RMK A01 T02710029  RH  021%=      5-min Rain = 0
KCA1 282240Z 23017KT 27/03 A2962 RMK A01 T02720029  RH  021%=      5-min Rain = 0
KCA1 282241Z 22017KT 27/03 A2962 RMK A01 T02710031  RH  021%=      5-min Rain = 0
KCA1 282242Z 23013G19KT 27/03 A2962 RMK A01 T02710034  RH  022%=      5-min Rain = 0
KCA1 282243Z 23015KT 27/04 A2962 RMK A01 T02710038  RH  022%=      5-min Rain = 0
KCA1 282244Z 23014KT 27/04 A2962 RMK A01 T02710040  RH  023%=      5-min Rain = 0
KCA1 282245Z 23011KT 27/05 A2962 RMK A01 T02720049  RH  024%=      5-min Rain = 0
KCA1 282246Z 23010KT 27/06 A2962 RMK A01 T02730062  RH  026%=      5-min Rain = 0
KCA1 282247Z 22012KT 27/05 A2962 RMK A01 T02740052  RH  024%=      5-min Rain = 0
KCA1 282248Z 23010KT 28/06 A2962 RMK A01 T02750055  RH  025%=      5-min Rain = 0
KCA1 282249Z 24015KT 28/06 A2962 RMK A01 T02760060  RH  025%=      5-min Rain = 0
KCA1 282250Z 25011G16KT 28/06 A2962 RMK A01 T02770058  RH  025%=      5-min Rain = 0
KCA1 282251Z 26017G23KT 28/07 A2962 RMK A01 T02790065  RH  026%=      5-min Rain = 0
KCA1 282252Z 26015G21KT 28/06 A2962 RMK A01 T02790055  RH  024%=      5-min Rain = 0
KCA1 282253Z 25014KT 28/06 A2962 RMK A01 T02780059  RH  025%=      5-min Rain = 0
KCA1 282254Z 25017G22KT 28/05 A2962 RMK A01 T02750052  RH  024%=      5-min Rain = 0
KCA1 282255Z 25017KT 27/05 A2962 RMK A01 T02730046  RH  023%=      5-min Rain = 0
KCA1 282256Z 25015KT 27/05 A2962 RMK A01 T02710052  RH  025%=      5-min Rain = 0
KCA1 282257Z 24014KT 27/05 A2962 RMK A01 T02700053  RH  025%=      5-min Rain = 0
KCA1 282258Z 24015G21KT 27/06 A2962 RMK A01 T02680058  RH  026%=      5-min Rain = 0
KCA1 282259Z 25017KT 27/05 A2962 RMK A01 T02670048  RH  024%=      5-min Rain = 0
KCA1 282300Z 25016KT 27/04 A2962 RMK A01 T02670041  RH  023%=      5-min Rain = 0
KCA1 282301Z 25013G18KT 27/05 A2962 RMK A01 T02690048  RH  024%=      5-min Rain = 0
KCA1 282302Z 25015KT 27/05 A2962 RMK A01 T02700051  RH  025%=      5-min Rain = 0
KCA1 282303Z 25014KT 27/05 A2962 RMK A01 T02690051  RH  025%=      5-min Rain = 0
KCA1 282304Z 25012G17KT 27/06 A2962 RMK A01 T02670062  RH  027%=      5-min Rain = 0
KCA1 282305Z 25013KT 27/06 A2962 RMK A01 T02660058  RH  026%=      5-min Rain = 0
KCA1 282306Z 25012G18KT 27/06 A2962 RMK A01 T02650058  RH  027%=      5-min Rain = 0
KCA1 282307Z 25014KT 27/06 A2962 RMK A01 T02650057  RH  026%=      5-min Rain = 0
KCA1 282308Z 25015KT 27/05 A2962 RMK A01 T02660050  RH  025%=      5-min Rain = 0
KCA1 282309Z 25012KT 27/05 A2962 RMK A01 T02670054  RH  025%=      5-min Rain = 0
KCA1 282310Z 25017KT 27/05 A2962 RMK A01 T02680051  RH  025%=      5-min Rain = 0
KCA1 282311Z 25013KT 27/05 A2962 RMK A01 T02680047  RH  024%=      5-min Rain = 0
KCA1 282312Z 24012KT 27/06 A2962 RMK A01 T02680057  RH  026%=      5-min Rain = 0
KCA1 282313Z 25014KT 27/06 A2962 RMK A01 T02690055  RH  025%=      5-min Rain = 0
KCA1 282314Z 25013KT 27/06 A2962 RMK A01 T02700056  RH  026%=      5-min Rain = 0
KCA1 282315Z 24014KT 27/05 A2962 RMK A01 T02710052  RH  025%=      5-min Rain = 0
KCA1 282316Z 25018KT 27/04 A2962 RMK A01 T02710043  RH  023%=      5-min Rain = 0
KCA1 282317Z 24018KT 27/05 A2962 RMK A01 T02720045  RH  023%=      5-min Rain = 0
KCA1 282318Z 25014KT 27/05 A2962 RMK A01 T02720047  RH  024%=      5-min Rain = 0
KCA1 282319Z 25016KT 27/05 A2962 RMK A01 T02730053  RH  025%=      5-min Rain = 0
KCA1 282320Z 24016KT 27/05 A2962 RMK A01 T02730046  RH  023%=      5-min Rain = 0
KCA1 282321Z 25016KT 27/05 A2962 RMK A01 T02730051  RH  024%=      5-min Rain = 0
KCA1 282322Z 24013KT 27/05 A2962 RMK A01 T02730053  RH  025%=      5-min Rain = 0
KCA1 282323Z 25014KT 27/06 A2962 RMK A01 T02720057  RH  026%=      5-min Rain = 0
KCA1 282324Z 24013KT 27/05 A2962 RMK A01 T02700052  RH  025%=      5-min Rain = 0
KCA1 282325Z 24015KT 27/06 A2962 RMK A01 T02690056  RH  026%=      5-min Rain = 0
KCA1 282326Z 25013KT 27/05 A2962 RMK A01 T02680054  RH  025%=      5-min Rain = 0
KCA1 282327Z 25015KT 27/06 A2962 RMK A01 T02680055  RH  026%=      5-min Rain = 0
KCA1 282328Z 24017KT 27/05 A2962 RMK A01 T02670049  RH  025%=      5-min Rain = 0
KCA1 282329Z 24017KT 27/05 A2962 RMK A01 T02650046  RH  024%=      5-min Rain = 0
KCA1 282330Z 25014KT 26/05 A2962 RMK A01 T02640051  RH  025%=      5-min Rain = 0
KCA1 282331Z 24016KT 26/05 A2962 RMK A01 T02630047  RH  025%=      5-min Rain = 0
KCA1 282332Z 24016G21KT 26/04 A2962 RMK A01 T02630041  RH  024%=      5-min Rain = 0
KCA1 282333Z 25013KT 26/05 A2962 RMK A01 T02630049  RH  025%=      5-min Rain = 0
KCA1 282334Z 24013KT 26/05 A2962 RMK A01 T02630052  RH  026%=      5-min Rain = 0
KCA1 282335Z 24013KT 26/05 A2962 RMK A01 T02630050  RH  026%=      5-min Rain = 0
KCA1 282336Z 24012KT 26/05 A2962 RMK A01 T02610054  RH  027%=      5-min Rain = 0
KCA1 282337Z 24017KT 26/05 A2962 RMK A01 T02600046  RH  025%=      5-min Rain = 0
KCA1 282338Z 23015G21KT 26/04 A2962 RMK A01 T02600042  RH  025%=      5-min Rain = 0
KCA1 282339Z 24014KT 26/05 A2962 RMK A01 T02610047  RH  025%=      5-min Rain = 0
KCA1 282340Z 24013KT 26/05 A2962 RMK A01 T02610049  RH  026%=      5-min Rain = 0
KCA1 282341Z 24010KT 26/05 A2962 RMK A01 T02610053  RH  026%=      5-min Rain = 0
KCA1 282342Z 24013KT 26/06 A2962 RMK A01 T02600060  RH  028%=      5-min Rain = 0
KCA1 282343Z 24013KT 26/06 A2962 RMK A01 T02590055  RH  027%=      5-min Rain = 0
KCA1 282344Z 24012KT 26/06 A2962 RMK A01 T02590057  RH  027%=      5-min Rain = 0
KCA1 282345Z 24011KT 26/06 A2962 RMK A01 T02590061  RH  028%=      5-min Rain = 0
KCA1 282346Z 24014KT 26/06 A2962 RMK A01 T02580055  RH  027%=      5-min Rain = 0
KCA1 282347Z 24015KT 26/05 A2962 RMK A01 T02570050  RH  026%=      5-min Rain = 0
KCA1 282348Z 24011KT 26/06 A2962 RMK A01 T02570055  RH  027%=      5-min Rain = 0
KCA1 282349Z 24010KT 26/06 A2962 RMK A01 T02570063  RH  029%=      5-min Rain = 0
KCA1 282350Z 24011KT 26/07 A2962 RMK A01 T02570065  RH  029%=      5-min Rain = 0
KCA1 282351Z 24012KT 26/06 A2962 RMK A01 T02570062  RH  029%=      5-min Rain = 0
KCA1 282352Z 24012KT 26/06 A2962 RMK A01 T02570061  RH  029%=      5-min Rain = 0
KCA1 282353Z 24011KT 26/07 A2962 RMK A01 T02560066  RH  030%=      5-min Rain = 0
KCA1 282354Z 24011KT 26/06 A2962 RMK A01 T02550063  RH  029%=      5-min Rain = 0
KCA1 282355Z 24010KT 25/06 A2962 RMK A01 T02540062  RH  029%=      5-min Rain = 0
KCA1 282356Z 25010KT 25/07 A2962 RMK A01 T02540066  RH  030%=      5-min Rain = 0
KCA1 282357Z 24011KT 25/06 A2962 RMK A01 T02520061  RH  029%=      5-min Rain = 0
KCA1 282358Z 24010KT 25/06 A2962 RMK A01 T02510061  RH  030%=      5-min Rain = 0
KCA1 282359Z 24010KT 25/07 A2962 RMK A01 T02500066  RH  031%=      5-min Rain = 0
KCA1 290000Z 24009KT 25/07 A2962 RMK A01 T02480066  RH  031%=      5-min Rain = 0
KCA1 290001Z 24010KT 25/06 A2962 RMK A01 T02460064  RH  031%=      5-min Rain = 0
KCA1 290002Z 24010KT 25/06 A2962 RMK A01 T02460063  RH  031%=      5-min Rain = 0
KCA1 290003Z 24008KT 25/07 A2962 RMK A01 T02450068  RH  032%=      5-min Rain = 0
KCA1 290004Z 24009KT 24/07 A2962 RMK A01 T02440071  RH  033%=      5-min Rain = 0
KCA1 290005Z 24010KT 24/07 A2962 RMK A01 T02430067  RH  032%=      5-min Rain = 0
KCA1 290006Z 24008KT 24/07 A2962 RMK A01 T02420067  RH  032%=      5-min Rain = 0
KCA1 290007Z 24009KT 24/07 A2962 RMK A01 T02420068  RH  033%=      5-min Rain = 0
KCA1 290008Z 24009KT 24/07 A2962 RMK A01 T02410067  RH  033%=      5-min Rain = 0
KCA1 290009Z 24009KT 24/07 A2962 RMK A01 T02410072  RH  034%=      5-min Rain = 0
KCA1 290010Z 24009KT 24/07 A2962 RMK A01 T02390071  RH  034%=      5-min Rain = 0
KCA1 290011Z 25009KT 24/07 A2962 RMK A01 T02380071  RH  034%=      5-min Rain = 0
KCA1 290012Z 25008KT 24/07 A2962 RMK A01 T02380069  RH  034%=      5-min Rain = 0
KCA1 290013Z 24009KT 24/07 A2962 RMK A01 T02380072  RH  034%=      5-min Rain = 0
KCA1 290014Z 24010KT 24/07 A2962 RMK A01 T02370070  RH  034%=      5-min Rain = 0
KCA1 290015Z 25010KT 24/07 A2962 RMK A01 T02370068  RH  034%=      5-min Rain = 0
KCA1 290016Z 25009KT 24/07 A2963 RMK A01 T02370070  RH  034%=      5-min Rain = 0
KCA1 290017Z 25009KT 24/07 A2963 RMK A01 T02370072  RH  035%=      5-min Rain = 0
KCA1 290018Z 25008KT 24/07 A2963 RMK A01 T02380072  RH  034%=      5-min Rain = 0
KCA1 290019Z 25008KT 24/07 A2963 RMK A01 T02380074  RH  035%=      5-min Rain = 0
KCA1 290020Z 25008KT 24/07 A2963 RMK A01 T02380072  RH  035%=      5-min Rain = 0
KCA1 290021Z 25008KT 24/08 A2963 RMK A01 T02380075  RH  035%=      5-min Rain = 0
KCA1 290022Z 25009KT 24/07 A2963 RMK A01 T02380074  RH  035%=      5-min Rain = 0
KCA1 290023Z 25008KT 24/07 A2963 RMK A01 T02390072  RH  034%=      5-min Rain = 0
KCA1 290024Z 25008KT 24/08 A2963 RMK A01 T02390075  RH  035%=      5-min Rain = 0
KCA1 290025Z 25007KT 24/08 A2963 RMK A01 T02380081  RH  036%=      5-min Rain = 0
KCA1 290026Z 24008KT 24/08 A2963 RMK A01 T02370080  RH  037%=      5-min Rain = 0
KCA1 290027Z 24007KT 24/08 A2963 RMK A01 T02350080  RH  037%=      5-min Rain = 0
KCA1 290028Z 24007KT 23/08 A2963 RMK A01 T02340078  RH  037%=      5-min Rain = 0
KCA1 290029Z 24007KT 23/08 A2963 RMK A01 T02330080  RH  038%=      5-min Rain = 0
KCA1 290030Z 24007KT 23/08 A2963 RMK A01 T02320082  RH  038%=      5-min Rain = 0
KCA1 290031Z 24007KT 23/08 A2963 RMK A01 T02300082  RH  039%=      5-min Rain = 0
KCA1 290032Z 24007KT 23/08 A2963 RMK A01 T02280082  RH  039%=      5-min Rain = 0
KCA1 290033Z 24007KT 23/08 A2963 RMK A01 T02270084  RH  040%=      5-min Rain = 0
KCA1 290034Z 24007KT 23/08 A2963 RMK A01 T02260084  RH  040%=      5-min Rain = 0
KCA1 290035Z 24006KT 22/08 A2963 RMK A01 T02240081  RH  040%=      5-min Rain = 0
KCA1 290036Z 24007KT 22/08 A2963 RMK A01 T02240082  RH  040%=      5-min Rain = 0
KCA1 290037Z 24007KT 22/08 A2963 RMK A01 T02230080  RH  040%=      5-min Rain = 0
KCA1 290038Z 24007KT 22/08 A2963 RMK A01 T02220081  RH  040%=      5-min Rain = 0
KCA1 290039Z 24007KT 22/08 A2963 RMK A01 T02220081  RH  040%=      5-min Rain = 0
KCA1 290040Z 24006KT 22/08 A2963 RMK A01 T02220082  RH  041%=      5-min Rain = 0
KCA1 290041Z 24007KT 22/08 A2963 RMK A01 T02210083  RH  041%=      5-min Rain = 0
KCA1 290042Z 24007KT 22/08 A2963 RMK A01 T02210083  RH  041%=      5-min Rain = 0
KCA1 290043Z 24007KT 22/08 A2963 RMK A01 T02200081  RH  041%=      5-min Rain = 0
KCA1 290044Z 24007KT 22/08 A2963 RMK A01 T02200082  RH  041%=      5-min Rain = 0
KCA1 290045Z 24007KT 22/08 A2963 RMK A01 T02190083  RH  042%=      5-min Rain = 0
KCA1 290046Z 24007KT 22/08 A2963 RMK A01 T02180084  RH  042%=      5-min Rain = 0
KCA1 290047Z 24006KT 22/09 A2964 RMK A01 T02180085  RH  042%=      5-min Rain = 0
KCA1 290048Z 24006KT 22/09 A2964 RMK A01 T02170085  RH  043%=      5-min Rain = 0
KCA1 290049Z 24007KT 22/09 A2964 RMK A01 T02160086  RH  043%=      5-min Rain = 0
KCA1 290050Z 24006KT 22/09 A2964 RMK A01 T02150085  RH  043%=      5-min Rain = 0
KCA1 290051Z 24006KT 22/09 A2964 RMK A01 T02150085  RH  043%=      5-min Rain = 0
KCA1 290052Z 24006KT 22/09 A2964 RMK A01 T02150085  RH  043%=      5-min Rain = 0
KCA1 290053Z 24006KT 22/09 A2964 RMK A01 T02150085  RH  043%=      5-min Rain = 0
KCA1 290054Z 24006KT 22/09 A2964 RMK A01 T02150085  RH  043%=      5-min Rain = 0
KCA1 290055Z 24006KT 22/08 A2964 RMK A01 T02150083  RH  043%=      5-min Rain = 0
KCA1 290056Z 24006KT 22/08 A2964 RMK A01 T02150084  RH  043%=      5-min Rain = 0
KCA1 290057Z 24006KT 21/08 A2964 RMK A01 T02140084  RH  043%=      5-min Rain = 0
KCA1 290058Z 24006KT 22/08 A2964 RMK A01 T02150084  RH  043%=      5-min Rain = 0
KCA1 290059Z 24006KT 22/08 A2964 RMK A01 T02150084  RH  043%=      5-min Rain = 0
KCA1 290100Z 24006KT 21/08 A2964 RMK A01 T02140084  RH  043%=      5-min Rain = 0
KCA1 290101Z 24006KT 22/08 A2964 RMK A01 T02150083  RH  043%=      5-min Rain = 0
KCA1 290102Z 24006KT 21/09 A2964 RMK A01 T02140086  RH  044%=      5-min Rain = 0
KCA1 290103Z 24006KT 21/09 A2964 RMK A01 T02140086  RH  044%=      5-min Rain = 0
KCA1 290104Z 25006KT 21/08 A2964 RMK A01 T02140083  RH  043%=      5-min Rain = 0
KCA1 290105Z 24006KT 21/08 A2964 RMK A01 T02140081  RH  042%=      5-min Rain = 0
KCA1 290106Z 24006KT 21/08 A2964 RMK A01 T02140081  RH  042%=      5-min Rain = 0
KCA1 290107Z 24006KT 21/08 A2964 RMK A01 T02140080  RH  042%=      5-min Rain = 0
KCA1 290108Z 24006KT 21/08 A2964 RMK A01 T02140079  RH  042%=      5-min Rain = 0
KCA1 290109Z 24006KT 21/08 A2964 RMK A01 T02140076  RH  041%=      5-min Rain = 0
KCA1 290110Z 24006KT 22/08 A2964 RMK A01 T02150076  RH  041%=      5-min Rain = 0
KCA1 290111Z 24006KT 22/08 A2964 RMK A01 T02150078  RH  041%=      5-min Rain = 0
KCA1 290112Z 24006KT 22/08 A2964 RMK A01 T02150078  RH  041%=      5-min Rain = 0
KCA1 290113Z 23006KT 22/08 A2964 RMK A01 T02150078  RH  041%=      5-min Rain = 0
KCA1 290114Z 24006KT 22/08 A2964 RMK A01 T02150077  RH  041%=      5-min Rain = 0
KCA1 290115Z 24006KT 22/08 A2964 RMK A01 T02150079  RH  042%=      5-min Rain = 0
KCA1 290116Z 24006KT 22/08 A2964 RMK A01 T02150078  RH  041%=      5-min Rain = 0
KCA1 290117Z 24006KT 22/08 A2964 RMK A01 T02150078  RH  041%=      5-min Rain = 0
KCA1 290118Z 24005KT 22/08 A2964 RMK A01 T02160077  RH  041%=      5-min Rain = 0
KCA1 290119Z 23005KT 22/08 A2964 RMK A01 T02170077  RH  041%=      5-min Rain = 0
KCA1 290120Z 23005KT 22/08 A2964 RMK A01 T02170076  RH  040%=      5-min Rain = 0
KCA1 290121Z 23005KT 22/08 A2965 RMK A01 T02180079  RH  041%=      5-min Rain = 0
KCA1 290122Z 24005KT 22/08 A2965 RMK A01 T02180081  RH  041%=      5-min Rain = 0
KCA1 290123Z 23005KT 22/08 A2965 RMK A01 T02180082  RH  041%=      5-min Rain = 0
KCA1 290124Z 24005KT 22/08 A2965 RMK A01 T02180084  RH  042%=      5-min Rain = 0
KCA1 290125Z 24005KT 22/08 A2965 RMK A01 T02180083  RH  042%=      5-min Rain = 0
KCA1 290126Z 24005KT 22/09 A2965 RMK A01 T02180085  RH  042%=      5-min Rain = 0
KCA1 290127Z 24005KT 22/08 A2965 RMK A01 T02180082  RH  042%=      5-min Rain = 0
KCA1 290128Z 24005KT 22/08 A2965 RMK A01 T02180083  RH  042%=      5-min Rain = 0
KCA1 290129Z 24005KT 22/08 A2965 RMK A01 T02180082  RH  042%=      5-min Rain = 0
KCA1 290130Z 23005KT 22/08 A2965 RMK A01 T02170080  RH  041%=      5-min Rain = 0
KCA1 290131Z 23005KT 22/08 A2965 RMK A01 T02180079  RH  041%=      5-min Rain = 0
KCA1 290132Z 23006KT 22/08 A2965 RMK A01 T02170078  RH  041%=      5-min Rain = 0
KCA1 290133Z 23006KT 22/08 A2965 RMK A01 T02170077  RH  040%=      5-min Rain = 0
KCA1 290134Z 23005KT 22/08 A2965 RMK A01 T02180076  RH  040%=      5-min Rain = 0
KCA1 290135Z 23005KT 22/08 A2965 RMK A01 T02170076  RH  040%=      5-min Rain = 0
KCA1 290136Z 23006KT 22/08 A2965 RMK A01 T02170075  RH  040%=      5-min Rain = 0
KCA1 290137Z 23006KT 22/07 A2965 RMK A01 T02170074  RH  040%=      5-min Rain = 0
KCA1 290138Z 23005KT 22/07 A2965 RMK A01 T02160073  RH  040%=      5-min Rain = 0
KCA1 290139Z 23006KT 22/07 A2965 RMK A01 T02160073  RH  040%=      5-min Rain = 0
KCA1 290140Z 23005KT 22/07 A2965 RMK A01 T02160074  RH  040%=      5-min Rain = 0
KCA1 290141Z 23005KT 22/07 A2965 RMK A01 T02150072  RH  040%=      5-min Rain = 0
KCA1 290142Z 23006KT 22/07 A2965 RMK A01 T02150072  RH  040%=      5-min Rain = 0
KCA1 290143Z 23006KT 21/07 A2965 RMK A01 T02140072  RH  040%=      5-min Rain = 0
KCA1 290144Z 23006KT 21/07 A2965 RMK A01 T02140070  RH  039%=      5-min Rain = 0
KCA1 290145Z 23006KT 21/07 A2965 RMK A01 T02140068  RH  039%=      5-min Rain = 0
KCA1 290146Z 23006KT 21/07 A2965 RMK A01 T02140069  RH  039%=      5-min Rain = 0
KCA1 290147Z 23006KT 21/07 A2966 RMK A01 T02140068  RH  039%=      5-min Rain = 0
KCA1 290148Z 23006KT 21/07 A2966 RMK A01 T02130067  RH  039%=      5-min Rain = 0
KCA1 290149Z 22006KT 21/07 A2966 RMK A01 T02130069  RH  039%=      5-min Rain = 0
KCA1 290150Z 22006KT 21/07 A2966 RMK A01 T02110068  RH  039%=      5-min Rain = 0
KCA1 290151Z 22005KT 21/07 A2966 RMK A01 T02100068  RH  040%=      5-min Rain = 0
KCA1 290152Z 21005KT 21/07 A2966 RMK A01 T02090067  RH  040%=      5-min Rain = 0
KCA1 290153Z 21005KT 21/06 A2966 RMK A01 T02090064  RH  039%=      5-min Rain = 0
KCA1 290154Z 20005KT 21/06 A2966 RMK A01 T02090060  RH  038%=      5-min Rain = 0
KCA1 290155Z 20005KT 21/06 A2966 RMK A01 T02110058  RH  037%=      5-min Rain = 0
KCA1 290156Z 20005KT 21/06 A2966 RMK A01 T02140059  RH  036%=      5-min Rain = 0
KCA1 290157Z 19004KT 22/06 A2966 RMK A01 T02150060  RH  036%=      5-min Rain = 0
KCA1 290158Z 20004KT 22/06 A2966 RMK A01 T02160060  RH  036%=      5-min Rain = 0
KCA1 290159Z 21004KT 22/06 A2966 RMK A01 T02160059  RH  036%=      5-min Rain = 0
KCA1 290200Z 20004KT 22/06 A2966 RMK A01 T02150058  RH  036%=      5-min Rain = 0
KCA1 290201Z 19004KT 22/06 A2966 RMK A01 T02160060  RH  036%=      5-min Rain = 0
KCA1 290202Z 19004KT 22/06 A2966 RMK A01 T02150059  RH  036%=      5-min Rain = 0
KCA1 290203Z 20004KT 22/06 A2967 RMK A01 T02150059  RH  036%=      5-min Rain = 0
KCA1 290204Z 20004KT 22/06 A2967 RMK A01 T02150061  RH  037%=      5-min Rain = 0
KCA1 290205Z 21004KT 21/06 A2967 RMK A01 T02140060  RH  037%=      5-min Rain = 0
KCA1 290206Z 21003KT 21/06 A2967 RMK A01 T02130061  RH  037%=      5-min Rain = 0
KCA1 290207Z 21003KT 21/06 A2967 RMK A01 T02120061  RH  038%=      5-min Rain = 0
KCA1 290208Z 21003KT 21/06 A2966 RMK A01 T02110061  RH  038%=      5-min Rain = 0
KCA1 290209Z 21002KT 21/06 A2966 RMK A01 T02110059  RH  037%=      5-min Rain = 0
KCA1 290210Z 21003KT 21/06 A2967 RMK A01 T02110056  RH  036%=      5-min Rain = 0
KCA1 290211Z 21003KT 21/06 A2967 RMK A01 T02120057  RH  036%=      5-min Rain = 0
KCA1 290212Z 21003KT 21/06 A2967 RMK A01 T02120061  RH  037%=      5-min Rain = 0
KCA1 290213Z 22004KT 21/06 A2967 RMK A01 T02120063  RH  038%=      5-min Rain = 0
KCA1 290214Z 22003KT 21/07 A2967 RMK A01 T02110066  RH  039%=      5-min Rain = 0
KCA1 290215Z 22004KT 21/06 A2967 RMK A01 T02100064  RH  039%=      5-min Rain = 0
KCA1 290216Z 22004KT 21/06 A2967 RMK A01 T02090062  RH  038%=      5-min Rain = 0
KCA1 290217Z 22005KT 21/06 A2967 RMK A01 T02080063  RH  039%=      5-min Rain = 0
KCA1 290218Z 23005KT 21/07 A2967 RMK A01 T02080067  RH  040%=      5-min Rain = 0
KCA1 290219Z 23006KT 21/06 A2967 RMK A01 T02080062  RH  039%=      5-min Rain = 0
KCA1 290220Z 23006KT 21/06 A2967 RMK A01 T02080061  RH  038%=      5-min Rain = 0
KCA1 290221Z 23006KT 21/06 A2967 RMK A01 T02070061  RH  039%=      5-min Rain = 0
KCA1 290222Z 23006KT 21/06 A2967 RMK A01 T02060060  RH  038%=      5-min Rain = 0
KCA1 290223Z 23006KT 21/06 A2967 RMK A01 T02050058  RH  038%=      5-min Rain = 0
KCA1 290224Z 23006KT 21/06 A2967 RMK A01 T02050058  RH  038%=      5-min Rain = 0
KCA1 290225Z 23006KT 20/06 A2967 RMK A01 T02040057  RH  038%=      5-min Rain = 0
KCA1 290226Z 23006KT 21/06 A2967 RMK A01 T02050057  RH  038%=      5-min Rain = 0
KCA1 290227Z 23007KT 21/05 A2967 RMK A01 T02050052  RH  036%=      5-min Rain = 0
KCA1 290228Z 23007KT 21/05 A2967 RMK A01 T02080050  RH  035%=      5-min Rain = 0
KCA1 290229Z 23006KT 21/05 A2967 RMK A01 T02110046  RH  034%=      5-min Rain = 0
KCA1 290230Z 23006KT 21/05 A2967 RMK A01 T02130048  RH  034%=      5-min Rain = 0
KCA1 290231Z 23006KT 21/05 A2967 RMK A01 T02130050  RH  034%=      5-min Rain = 0
KCA1 290232Z 23006KT 21/05 A2967 RMK A01 T02120050  RH  035%=      5-min Rain = 0
KCA1 290233Z 23005KT 21/05 A2967 RMK A01 T02110052  RH  035%=      5-min Rain = 0
KCA1 290234Z 22006KT 21/05 A2967 RMK A01 T02090053  RH  036%=      5-min Rain = 0
KCA1 290235Z 22006KT 21/05 A2967 RMK A01 T02070052  RH  036%=      5-min Rain = 0
KCA1 290236Z 22005KT 21/05 A2967 RMK A01 T02070052  RH  036%=      5-min Rain = 0
KCA1 290237Z 22005KT 21/05 A2967 RMK A01 T02060051  RH  036%=      5-min Rain = 0
KCA1 290238Z 22005KT 21/05 A2967 RMK A01 T02060054  RH  037%=      5-min Rain = 0
KCA1 290239Z 22005KT 21/05 A2967 RMK A01 T02050054  RH  037%=      5-min Rain = 0
KCA1 290240Z 23004KT 20/05 A2967 RMK A01 T02040053  RH  037%=      5-min Rain = 0
KCA1 290241Z 23004KT 20/05 A2967 RMK A01 T02040052  RH  037%=      5-min Rain = 0
KCA1 290242Z 22004KT 20/05 A2967 RMK A01 T02030053  RH  037%=      5-min Rain = 0
KCA1 290243Z 23004KT 20/05 A2967 RMK A01 T02030051  RH  037%=      5-min Rain = 0
KCA1 290244Z 23004KT 20/05 A2967 RMK A01 T02030046  RH  036%=      5-min Rain = 0
KCA1 290245Z 23003KT 21/05 A2967 RMK A01 T02050047  RH  035%=      5-min Rain = 0
KCA1 290246Z 23004KT 21/04 A2967 RMK A01 T02060042  RH  034%=      5-min Rain = 0
KCA1 290247Z 23003KT 21/04 A2967 RMK A01 T02090042  RH  033%=      5-min Rain = 0
KCA1 290248Z 23003KT 21/04 A2967 RMK A01 T02100043  RH  034%=      5-min Rain = 0
KCA1 290249Z 23003KT 21/04 A2967 RMK A01 T02100043  RH  033%=      5-min Rain = 0
KCA1 290250Z 23003KT 21/04 A2967 RMK A01 T02100040  RH  033%=      5-min Rain = 0
KCA1 290251Z 23003KT 21/04 A2967 RMK A01 T02110039  RH  032%=      5-min Rain = 0
KCA1 290252Z 23003KT 21/04 A2967 RMK A01 T02130041  RH  032%=      5-min Rain = 0
KCA1 290253Z 23003KT 21/04 A2967 RMK A01 T02140042  RH  033%=      5-min Rain = 0
KCA1 290254Z 23003KT 21/04 A2967 RMK A01 T02140042  RH  032%=      5-min Rain = 0
KCA1 290255Z 24003KT 21/04 A2967 RMK A01 T02140041  RH  032%=      5-min Rain = 0
KCA1 290256Z 23003KT 21/04 A2967 RMK A01 T02130044  RH  033%=      5-min Rain = 0
KCA1 290257Z 23003KT 21/04 A2967 RMK A01 T02130043  RH  033%=      5-min Rain = 0
KCA1 290258Z 22003KT 21/04 A2968 RMK A01 T02130041  RH  032%=      5-min Rain = 0
KCA1 290259Z 22003KT 21/04 A2968 RMK A01 T02140041  RH  032%=      5-min Rain = 0
KCA1 290300Z 22003KT 21/04 A2968 RMK A01 T02140041  RH  032%=      5-min Rain = 0
KCA1 290301Z 22002KT 22/04 A2968 RMK A01 T02150043  RH  032%=      5-min Rain = 0
KCA1 290302Z 21003KT 21/05 A2968 RMK A01 T02140046  RH  033%=      5-min Rain = 0
KCA1 290303Z 20003KT 21/05 A2968 RMK A01 T02120047  RH  034%=      5-min Rain = 0
KCA1 290304Z 21002KT 21/05 A2968 RMK A01 T02100045  RH  034%=      5-min Rain = 0
KCA1 290305Z 23002KT 21/05 A2968 RMK A01 T02100045  RH  034%=      5-min Rain = 0
KCA1 290306Z 24002KT 21/05 A2968 RMK A01 T02100045  RH  034%=      5-min Rain = 0
KCA1 290307Z 23002KT 21/04 A2968 RMK A01 T02110041  RH  033%=      5-min Rain = 0
KCA1 290308Z 21002KT 21/04 A2968 RMK A01 T02130042  RH  033%=      5-min Rain = 0
KCA1 290309Z 22002KT 21/04 A2968 RMK A01 T02140043  RH  032%=      5-min Rain = 0
KCA1 290310Z 22002KT 22/04 A2968 RMK A01 T02150042  RH  032%=      5-min Rain = 0
KCA1 290311Z 21002KT 22/04 A2968 RMK A01 T02150041  RH  032%=      5-min Rain = 0
KCA1 290312Z 22001KT 21/04 A2968 RMK A01 T02140042  RH  032%=      5-min Rain = 0
KCA1 290313Z 21001KT 21/04 A2968 RMK A01 T02140041  RH  032%=      5-min Rain = 0
KCA1 290314Z 20002KT 22/04 A2968 RMK A01 T02150041  RH  032%=      5-min Rain = 0
KCA1 290315Z 24003KT 21/04 A2968 RMK A01 T02140044  RH  033%=      5-min Rain = 0
KCA1 290316Z 25002KT 21/03 A2968 RMK A01 T02130034  RH  031%=      5-min Rain = 0
KCA1 290317Z 26003KT 22/03 A2968 RMK A01 T02160034  RH  030%=      5-min Rain = 0
KCA1 290318Z 20003KT 22/04 A2968 RMK A01 T02180043  RH  032%=      5-min Rain = 0
KCA1 290319Z 21003KT 22/05 A2968 RMK A01 T02170047  RH  033%=      5-min Rain = 0
KCA1 290320Z 20004KT 21/05 A2968 RMK A01 T02130049  RH  034%=      5-min Rain = 0
KCA1 290321Z 21003KT 21/05 A2968 RMK A01 T02090051  RH  036%=      5-min Rain = 0
KCA1 290322Z 22004KT 21/05 A2968 RMK A01 T02070050  RH  036%=      5-min Rain = 0
KCA1 290323Z 20004KT 20/06 A2969 RMK A01 T02040057  RH  038%=      5-min Rain = 0
KCA1 290324Z 19004KT 20/06 A2969 RMK A01 T02000058  RH  039%=      5-min Rain = 0
KCA1 290325Z 19002KT 20/06 A2969 RMK A01 T01980056  RH  039%=      5-min Rain = 0
KCA1 290326Z 21002KT 20/05 A2969 RMK A01 T01970053  RH  039%=      5-min Rain = 0
KCA1 290327Z 21002KT 20/05 A2969 RMK A01 T01960053  RH  039%=      5-min Rain = 0
KCA1 290328Z 20002KT 20/05 A2969 RMK A01 T01960048  RH  038%=      5-min Rain = 0
KCA1 290329Z 20002KT 20/05 A2969 RMK A01 T01970049  RH  038%=      5-min Rain = 0
KCA1 290330Z 20002KT 20/05 A2969 RMK A01 T01980049  RH  037%=      5-min Rain = 0
KCA1 290331Z 21002KT 20/05 A2969 RMK A01 T02000049  RH  037%=      5-min Rain = 0
KCA1 290332Z 20003KT 20/05 A2969 RMK A01 T02010049  RH  037%=      5-min Rain = 0
KCA1 290333Z 19002KT 20/05 A2969 RMK A01 T02020049  RH  037%=      5-min Rain = 0
KCA1 290334Z 18002KT 20/05 A2969 RMK A01 T02020049  RH  036%=      5-min Rain = 0
KCA1 290335Z 18002KT 20/05 A2969 RMK A01 T02030048  RH  036%=      5-min Rain = 0
KCA1 290336Z 18001KT 20/05 A2969 RMK A01 T02040048  RH  036%=      5-min Rain = 0
KCA1 290337Z 15001KT 20/05 A2969 RMK A01 T02040047  RH  036%=      5-min Rain = 0
KCA1 290338Z 19001KT 20/05 A2969 RMK A01 T02040047  RH  036%=      5-min Rain = 0
KCA1 290339Z 19001KT 20/05 A2969 RMK A01 T02040048  RH  036%=      5-min Rain = 0
KCA1 290340Z 19002KT 20/05 A2969 RMK A01 T02030050  RH  037%=      5-min Rain = 0
KCA1 290341Z 19002KT 20/05 A2969 RMK A01 T02020053  RH  038%=      5-min Rain = 0
KCA1 290342Z 19002KT 20/05 A297 RMK A01 T02010051  RH  037%=      5-min Rain = 0
KCA1 290343Z 18002KT 20/05 A297 RMK A01 T02000047  RH  036%=      5-min Rain = 0
KCA1 290344Z 18002KT 20/05 A297 RMK A01 T02000047  RH  036%=      5-min Rain = 0
KCA1 290345Z 18002KT 20/05 A297 RMK A01 T02010047  RH  036%=      5-min Rain = 0
KCA1 290346Z 18002KT 20/05 A297 RMK A01 T02010047  RH  036%=      5-min Rain = 0
KCA1 290347Z 17002KT 20/05 A297 RMK A01 T02010048  RH  036%=      5-min Rain = 0
KCA1 290348Z 18002KT 20/05 A297 RMK A01 T02010048  RH  037%=      5-min Rain = 0
KCA1 290349Z 18003KT 20/05 A297 RMK A01 T02010046  RH  036%=      5-min Rain = 0
KCA1 290350Z 17002KT 20/05 A297 RMK A01 T02020046  RH  036%=      5-min Rain = 0
KCA1 290351Z 17002KT 20/05 A297 RMK A01 T02020047  RH  036%=      5-min Rain = 0
KCA1 290352Z 17003KT 20/05 A297 RMK A01 T02020047  RH  036%=      5-min Rain = 0
KCA1 290353Z 16002KT 20/05 A297 RMK A01 T02020048  RH  036%=      5-min Rain = 0
KCA1 290354Z 16002KT 20/05 A297 RMK A01 T02020048  RH  036%=      5-min Rain = 0
KCA1 290355Z 14003KT 20/05 A297 RMK A01 T02010049  RH  037%=      5-min Rain = 0
KCA1 290356Z 15003KT 20/05 A297 RMK A01 T02000050  RH  037%=      5-min Rain = 0
KCA1 290357Z 15002KT 20/05 A297 RMK A01 T01980050  RH  038%=      5-min Rain = 0
KCA1 290358Z 12001KT 20/05 A297 RMK A01 T01970051  RH  038%=      5-min Rain = 0
KCA1 290359Z 12002KT 20/06 A297 RMK A01 T01960055  RH  040%=      5-min Rain = 0
KCA1 290400Z 29001KT 20/05 A297 RMK A01 T01950052  RH  039%=      5-min Rain = 0
KCA1 290401Z 30002KT 19/05 A297 RMK A01 T01940050  RH  039%=      5-min Rain = 0
KCA1 290402Z 32001KT 19/06 A297 RMK A01 T01930056  RH  041%=      5-min Rain = 0
KCA1 290403Z 34002KT 19/06 A297 RMK A01 T01900063  RH  043%=      5-min Rain = 0
KCA1 290404Z 35002KT 19/06 A297 RMK A01 T01870058  RH  043%=      5-min Rain = 0
KCA1 290405Z 34003KT 18/06 A297 RMK A01 T01840063  RH  045%=      5-min Rain = 0
KCA1 290406Z 34002KT 18/06 A297 RMK A01 T01800064  RH  047%=      5-min Rain = 0
KCA1 290407Z 32003KT 18/06 A297 RMK A01 T01770058  RH  046%=      5-min Rain = 0
KCA1 290408Z 31003KT 18/05 A297 RMK A01 T01770051  RH  043%=      5-min Rain = 0
KCA1 290409Z 30004KT 18/04 A297 RMK A01 T01810041  RH  040%=      5-min Rain = 0
KCA1 290410Z 29004KT 19/04 A297 RMK A01 T01880040  RH  038%=      5-min Rain = 0
KCA1 290411Z 28004KT 19/05 A297 RMK A01 T01910046  RH  038%=      5-min Rain = 0
KCA1 290412Z 30003KT 19/04 A297 RMK A01 T01910041  RH  037%=      5-min Rain = 0
KCA1 290413Z 30003KT 19/04 A297 RMK A01 T01930039  RH  036%=      5-min Rain = 0
KCA1 290414Z 28003KT 19/04 A297 RMK A01 T01940038  RH  035%=      5-min Rain = 0
KCA1 290415Z 24003KT 20/04 A297 RMK A01 T01950040  RH  036%=      5-min Rain = 0
KCA1 290416Z 21004KT 20/05 A2971 RMK A01 T01950045  RH  037%=      5-min Rain = 0
KCA1 290417Z 18004KT 19/04 A2971 RMK A01 T01920044  RH  038%=      5-min Rain = 0
KCA1 290418Z 20003KT 19/05 A2971 RMK A01 T01890051  RH  040%=      5-min Rain = 0
KCA1 290419Z 17002KT 18/06 A2971 RMK A01 T01820060  RH  045%=      5-min Rain = 0
KCA1 290420Z 14001KT 18/06 A2971 RMK A01 T01760055  RH  045%=      5-min Rain = 0
KCA1 290421Z 15000KT 18/05 A2971 RMK A01 T01750050  RH  044%=      5-min Rain = 0
KCA1 290422Z 07001KT 18/05 A2971 RMK A01 T01750052  RH  044%=      5-min Rain = 0
KCA1 290423Z 31000KT 18/05 A2971 RMK A01 T01750053  RH  045%=      5-min Rain = 0
KCA1 290424Z 32001KT 18/05 A2971 RMK A01 T01750050  RH  043%=      5-min Rain = 0
KCA1 290425Z 32002KT 18/05 A2971 RMK A01 T01770045  RH  042%=      5-min Rain = 0
KCA1 290426Z 32002KT 18/05 A2971 RMK A01 T01810050  RH  042%=      5-min Rain = 0
KCA1 290427Z 33002KT 18/06 A2971 RMK A01 T01770060  RH  046%=      5-min Rain = 0
KCA1 290428Z 35002KT 17/06 A2971 RMK A01 T01700064  RH  050%=      5-min Rain = 0
KCA1 290429Z 35003KT 16/06 A2971 RMK A01 T01630063  RH  052%=      5-min Rain = 0
KCA1 290430Z 35003KT 16/07 A2971 RMK A01 T01580065  RH  054%=      5-min Rain = 0
KCA1 290431Z 35004KT 15/07 A2971 RMK A01 T01540066  RH  056%=      5-min Rain = 0
KCA1 290432Z 36004KT 15/07 A2971 RMK A01 T01510068  RH  058%=      5-min Rain = 0
KCA1 290433Z 00004KT 15/07 A2971 RMK A01 T01470068  RH  059%=      5-min Rain = 0
KCA1 290434Z 00004KT 14/07 A2971 RMK A01 T01440068  RH  060%=      5-min Rain = 0
KCA1 290435Z 00005KT 14/06 A2971 RMK A01 T01440062  RH  058%=      5-min Rain = 0
KCA1 290436Z 35005KT 15/06 A2971 RMK A01 T01480064  RH  057%=      5-min Rain = 0
KCA1 290437Z 34005KT 15/07 A2971 RMK A01 T01480066  RH  058%=      5-min Rain = 0
KCA1 290438Z 34005KT 15/07 A2971 RMK A01 T01470067  RH  059%=      5-min Rain = 0
KCA1 290439Z 34004KT 15/07 A2971 RMK A01 T01450066  RH  059%=      5-min Rain = 0
KCA1 290440Z 33005KT 14/07 A2971 RMK A01 T01440065  RH  059%=      5-min Rain = 0
KCA1 290441Z 33005KT 14/07 A2971 RMK A01 T01440065  RH  059%=      5-min Rain = 0
KCA1 290442Z 33005KT 14/06 A2971 RMK A01 T01440064  RH  059%=      5-min Rain = 0
KCA1 290443Z 33005KT 14/07 A2971 RMK A01 T01440065  RH  059%=      5-min Rain = 0
KCA1 290444Z 34005KT 15/06 A2971 RMK A01 T01450062  RH  058%=      5-min Rain = 0
KCA1 290445Z 33006KT 15/07 A2971 RMK A01 T01460065  RH  058%=      5-min Rain = 0
KCA1 290446Z 34006KT 15/07 A297 RMK A01 T01460065  RH  058%=      5-min Rain = 0
KCA1 290447Z 34006KT 15/07 A297 RMK A01 T01450066  RH  059%=      5-min Rain = 0
KCA1 290448Z 34007KT 14/07 A297 RMK A01 T01440066  RH  059%=      5-min Rain = 0
KCA1 290449Z 34006KT 14/06 A297 RMK A01 T01440064  RH  059%=      5-min Rain = 0
KCA1 290450Z 34006KT 14/06 A297 RMK A01 T01440063  RH  058%=      5-min Rain = 0
KCA1 290451Z 34006KT 14/06 A297 RMK A01 T01440063  RH  058%=      5-min Rain = 0
KCA1 290452Z 33006KT 14/06 A297 RMK A01 T01440063  RH  058%=      5-min Rain = 0
KCA1 290453Z 33006KT 14/06 A297 RMK A01 T01440064  RH  058%=      5-min Rain = 0
KCA1 290454Z 33006KT 14/06 A297 RMK A01 T01440062  RH  058%=      5-min Rain = 0
KCA1 290455Z 33006KT 15/06 A297 RMK A01 T01450059  RH  056%=      5-min Rain = 0
KCA1 290456Z 19004KT 15/06 A297 RMK A01 T01460062  RH  057%=      5-min Rain = 0
KCA1 290457Z 16003KT 15/07 A2971 RMK A01 T01450065  RH  059%=      5-min Rain = 0
KCA1 290458Z 20003KT 14/06 A2971 RMK A01 T01440057  RH  056%=      5-min Rain = 0
KCA1 290459Z 25002KT 15/06 A2971 RMK A01 T01460056  RH  055%=      5-min Rain = 0

Page generated in 0.0728 seconds.